M I D A S
Marine Information and Data Acquisition System
Tripno 1739 of the Zeeleeuw from 2009-07-27 06:58:48 to 2009-07-27 13:02:44
Back to CruiseResearch ActivitiesStationsMapUnderway DataData graphs

EquipmentUnitsComment
TimeDGPSUTC
LatitudeDGPSDM.mWGS84
LongitudeDGPSDM.mWGS84
TemperatureSBE03/SBE38deg celciusITS90
ConductivitySBE21S/mITS90
SalinitySBE21 Practical Salinity Units
ChlorophylAChelsea fluorimeterg/lCalibrated in Aceton
Missing or incorrect values are displayed as -999
Sea surface data collected by the RV Zeeleeuw from 2009-07-27 06:45:13 to 2009-07-27 13:10:34
                                                                                    Next 1000 lines
Time Latitude Longitude Temperature Conductivity Salinity ChlorophylA
2009-07-27 06:45:22 51°13.664 2°55.958 20.9447 0.085841 0.451618 8.889463
2009-07-27 06:45:27 51°13.665 2°55.958 20.9445 0.085944 0.452186 8.889463
2009-07-27 06:45:32 51°13.665 2°55.952 20.9448 0.085944 0.452186 8.889463
2009-07-27 06:45:37 51°13.662 2°55.959 20.9443 0.085944 0.452186 8.889463
2009-07-27 06:45:42 51°13.662 2°55.959 20.9441 0.086047 0.45274 8.889463
2009-07-27 06:45:47 51°13.663 2°55.96 20.9435 0.08615 0.453316 8.889463
2009-07-27 06:45:52 51°13.663 2°55.96 20.9434 0.086356 0.454445 8.889463
2009-07-27 06:45:57 51°13.662 2°55.96 20.9428 0.086459 0.454999 8.889463
2009-07-27 06:46:01 51°13.662 2°55.959 20.9436 0.086356 0.454445 8.889463
2009-07-27 06:46:06 51°13.662 2°55.959 20.9444 0.086356 0.454445 8.889463
2009-07-27 06:46:11 51°13.663 2°55.958 20.9447 0.086253 0.453892 8.889463
2009-07-27 06:46:17 51°13.663 2°55.958 20.946 0.086253 0.453884 8.889463
2009-07-27 06:46:22 51°13.663 2°55.959 20.9461 0.08615 0.453339 8.889463
2009-07-27 06:46:28 51°13.663 2°55.959 20.9452 0.08615 0.453339 8.889463
2009-07-27 06:46:33 51°13.663 2°55.959 20.945 0.08615 0.453331 8.889463
2009-07-27 06:46:38 51°13.664 2°55.959 20.9455 0.08615 0.453331 8.889463
2009-07-27 06:46:42 51°13.664 2°55.959 20.9456 0.086253 0.453907 8.889463
2009-07-27 06:46:47 51°13.664 2°55.959 20.9458 0.086253 0.4539 8.889463
2009-07-27 06:46:52 51°13.665 2°55.959 20.9446 0.08615 0.453339 8.889463
2009-07-27 06:46:58 51°13.665 2°55.959 20.9442 0.08615 0.453354 8.889463
2009-07-27 06:47:02 51°13.665 2°55.959 20.945 0.08615 0.453354 8.889463
2009-07-27 06:47:07 51°13.665 2°55.959 20.9457 0.08615 0.453354 8.889463
2009-07-27 06:47:12 51°13.665 2°55.959 20.946 0.086047 0.452793 8.889463
2009-07-27 06:47:17 51°13.664 2°55.959 20.9477 0.085944 0.452239 8.889463
2009-07-27 06:47:22 51°13.664 2°55.96 20.9449 0.086253 0.453922 8.889463
2009-07-27 06:47:27 51°13.664 2°55.96 20.9441 0.08615 0.453361 8.889463
2009-07-27 06:47:31 51°13.664 2°55.96 20.9434 0.086253 0.453938 8.889463
2009-07-27 06:47:36 51°13.664 2°55.96 20.9461 0.086253 0.453938 8.889463
2009-07-27 06:47:41 51°13.664 2°55.96 20.946 0.08615 0.453376 8.889463
2009-07-27 06:47:46 51°13.664 2°55.96 20.9462 0.08615 0.453369 8.889463
2009-07-27 06:47:51 51°13.664 2°55.96 20.9486 0.086047 0.452815 8.889463
2009-07-27 06:47:56 51°13.664 2°55.96 20.9493 0.085944 0.45227 8.889463
2009-07-27 06:48:01 51°13.664 2°55.96 20.9485 0.086047 0.452823 8.889463
2009-07-27 06:48:06 51°13.664 2°55.96 20.9486 0.086047 0.452823 8.889463
2009-07-27 06:48:10 51°13.664 2°55.96 20.9493 0.08615 0.453384 8.889463
2009-07-27 06:48:16 51°13.664 2°55.96 20.9485 0.086047 0.452831 8.889463
2009-07-27 06:48:22 51°13.664 2°55.96 20.9495 0.086047 0.452831 8.889463
2009-07-27 06:48:26 51°13.664 2°55.96 20.9493 0.08615 0.453392 8.889463
2009-07-27 06:48:31 51°13.664 2°55.96 20.9466 0.086459 0.455083 8.889463
2009-07-27 06:48:36 51°13.664 2°55.96 20.9448 0.086459 0.455083 8.889463
2009-07-27 06:48:41 51°13.664 2°55.96 20.9439 0.086459 0.45509 8.889463
2009-07-27 06:48:46 51°13.664 2°55.96 20.9427 0.086459 0.455098 8.889463
2009-07-27 06:48:50 51°13.664 2°55.96 20.9437 0.086562 0.455659 8.889463
2009-07-27 06:48:55 51°13.664 2°55.96 20.9451 0.086459 0.455106 8.889463
2009-07-27 06:49:00 51°13.664 2°55.96 20.9463 0.086459 0.455106 8.889463
2009-07-27 06:49:05 51°13.664 2°55.96 20.9474 0.086459 0.455106 8.889463
2009-07-27 06:49:10 51°13.664 2°55.96 20.9476 0.086459 0.455106 8.889463
2009-07-27 06:49:15 51°13.664 2°55.96 20.9477 0.086459 0.455106 8.889463
2009-07-27 06:49:19 51°13.664 2°55.96 20.9471 0.086562 0.455675 8.889463
2009-07-27 06:49:25 51°13.664 2°55.96 20.948 0.086562 0.455682 8.889463
2009-07-27 06:49:30 51°13.664 2°55.96 20.9484 0.086562 0.455682 8.889463
2009-07-27 06:49:35 51°13.664 2°55.96 20.9495 0.086562 0.455682 8.889463
2009-07-27 06:49:39 51°13.664 2°55.96 20.9499 0.086459 0.455113 8.854639
2009-07-27 06:49:45 51°13.664 2°55.96 20.951 0.086356 0.45456 8.889463
2009-07-27 06:49:50 51°13.664 2°55.96 20.951 0.086253 0.454014 8.889463
2009-07-27 06:49:54 51°13.664 2°55.96 20.9533 0.086047 0.452891 8.889463
2009-07-27 06:49:59 51°13.664 2°55.96 20.9539 0.086356 0.454567 8.889463
2009-07-27 06:50:05 51°13.664 2°55.96 20.9545 0.086356 0.454567 8.889463
2009-07-27 06:50:10 51°13.664 2°55.96 20.9549 0.085944 0.45233 8.889463
2009-07-27 06:50:14 51°13.664 2°55.96 20.9555 0.086047 0.452906 8.889463
2009-07-27 06:50:19 51°13.664 2°55.96 20.9553 0.086253 0.454021 8.889463
2009-07-27 06:50:25 51°13.664 2°55.96 20.9544 0.086356 0.454583 8.889463
2009-07-27 06:50:30 51°13.664 2°55.96 20.9541 0.08615 0.453468 8.889463
2009-07-27 06:50:35 51°13.664 2°55.96 20.9536 0.08615 0.453468 8.889463
2009-07-27 06:50:40 51°13.664 2°55.96 20.954 0.086047 0.452914 8.889463
2009-07-27 06:50:45 51°13.664 2°55.96 20.9547 0.086047 0.452914 8.889463
2009-07-27 06:50:50 51°13.664 2°55.96 20.9564 0.085944 0.452353 8.889463
2009-07-27 06:50:54 51°13.664 2°55.96 20.9559 0.085944 0.452353 8.889463
2009-07-27 06:50:59 51°13.664 2°55.96 20.9572 0.085841 0.451799 8.889463
2009-07-27 06:51:04 51°13.664 2°55.96 20.9579 0.085841 0.451799 8.889463
2009-07-27 06:51:09 51°13.664 2°55.96 20.9586 0.085841 0.451807 8.889463
2009-07-27 06:51:15 51°13.664 2°55.96 20.9594 0.085841 0.451814 8.889463
2009-07-27 06:51:19 51°13.664 2°55.96 20.959 0.085841 0.451814 8.854639
2009-07-27 06:51:25 51°13.664 2°55.96 20.9583 0.085841 0.451807 8.889463
2009-07-27 06:51:29 51°13.664 2°55.96 20.9583 0.085841 0.451814 8.889463
2009-07-27 06:51:35 51°13.663 2°55.96 20.9593 0.085841 0.451814 8.889463
2009-07-27 06:51:39 51°13.663 2°55.96 20.9594 0.085841 0.451814 8.889463
2009-07-27 06:51:45 51°13.662 2°55.96 20.9592 0.085841 0.451822 8.889463
2009-07-27 06:51:49 51°13.662 2°55.96 20.9594 0.085841 0.45183 8.889463
2009-07-27 06:51:55 51°13.662 2°55.961 20.9596 0.085738 0.451268 8.889463
2009-07-27 06:51:59 51°13.662 2°55.961 20.9601 0.085738 0.451268 8.889463
2009-07-27 06:52:05 51°13.662 2°55.961 20.9606 0.085738 0.451268 8.889463
2009-07-27 06:52:09 51°13.662 2°55.961 20.9608 0.085738 0.451268 8.854639
2009-07-27 06:52:15 51°13.662 2°55.962 20.9613 0.085738 0.451276 8.889463
2009-07-27 06:52:20 51°13.663 2°55.962 20.96 0.085841 0.451845 8.854639
2009-07-27 06:52:25 51°13.663 2°55.962 20.9582 0.085944 0.452414 8.854639
2009-07-27 06:52:29 51°13.663 2°55.962 20.9579 0.085944 0.452414 8.889463
2009-07-27 06:52:35 51°13.663 2°55.962 20.9582 0.085944 0.452414 8.889463
2009-07-27 06:52:39 51°13.662 2°55.962 20.959 0.085944 0.452414 8.889463
2009-07-27 06:52:45 51°13.662 2°55.962 20.9596 0.085944 0.452414 8.889463
2009-07-27 06:52:50 51°13.662 2°55.962 20.959 0.086047 0.452975 8.854639
2009-07-27 06:52:56 51°13.662 2°55.962 20.9589 0.08615 0.453544 8.854639
2009-07-27 06:53:01 51°13.662 2°55.962 20.9602 0.086047 0.45299 8.889463
2009-07-27 06:53:07 51°13.662 2°55.962 20.9597 0.086047 0.45299 8.889463
2009-07-27 06:53:12 51°13.662 2°55.962 20.9594 0.086047 0.45299 8.854639
2009-07-27 06:53:18 51°13.662 2°55.962 20.9596 0.08615 0.453559 8.889463
2009-07-27 06:53:23 51°13.662 2°55.962 20.9597 0.08615 0.453559 8.889463
2009-07-27 06:53:28 51°13.662 2°55.962 20.9594 0.08615 0.453566 8.854639
2009-07-27 06:53:34 51°13.663 2°55.962 20.9599 0.086047 0.453005 8.854639
2009-07-27 06:53:38 51°13.663 2°55.963 20.9596 0.086047 0.453005 8.854639
2009-07-27 06:53:43 51°13.663 2°55.963 20.9599 0.086047 0.453005 8.889463
2009-07-27 06:53:48 51°13.663 2°55.963 20.959 0.08615 0.453566 8.889463
2009-07-27 06:53:53 51°13.663 2°55.962 20.9587 0.08615 0.453574 8.854639
2009-07-27 06:53:58 51°13.663 2°55.962 20.9583 0.08615 0.453574 8.854639
2009-07-27 06:54:03 51°13.663 2°55.962 20.9583 0.086253 0.454143 8.854639
2009-07-27 06:54:08 51°13.663 2°55.962 20.959 0.086253 0.454143 8.854639
2009-07-27 06:54:12 51°13.663 2°55.962 20.9601 0.086253 0.454151 8.889463
2009-07-27 06:54:17 51°13.663 2°55.962 20.9605 0.086253 0.454151 8.889463
2009-07-27 06:54:22 51°13.663 2°55.962 20.9612 0.086253 0.454151 8.889463
2009-07-27 06:54:27 51°13.663 2°55.962 20.962 0.08615 0.453589 8.854639
2009-07-27 06:54:32 51°13.663 2°55.961 20.9617 0.08615 0.453597 8.889463
2009-07-27 06:54:36 51°13.663 2°55.961 20.9626 0.08615 0.453597 8.889463
2009-07-27 06:54:42 51°13.663 2°55.961 20.9643 0.085944 0.452474 8.889463
2009-07-27 06:54:47 51°13.663 2°55.961 20.9649 0.085944 0.452474 8.889463
2009-07-27 06:54:52 51°13.663 2°55.961 20.9656 0.085841 0.451913 8.889463
2009-07-27 06:54:58 51°13.663 2°55.961 20.9664 0.085841 0.45192 8.889463
2009-07-27 06:55:03 51°13.663 2°55.961 20.9663 0.085841 0.451928 8.854639
2009-07-27 06:55:08 51°13.663 2°55.961 20.9673 0.085841 0.451928 8.854639
2009-07-27 06:55:13 51°13.663 2°55.96 20.9664 0.085738 0.451367 8.854639
2009-07-27 06:55:18 51°13.663 2°55.96 20.9669 0.085738 0.451374 8.889463
2009-07-27 06:55:23 51°13.663 2°55.96 20.9676 0.085635 0.450821 8.854639
2009-07-27 06:55:28 51°13.663 2°55.96 20.9688 0.085533 0.450259 8.854639
2009-07-27 06:55:33 51°13.663 2°55.96 20.9697 0.085533 0.450267 8.889463
2009-07-27 06:55:38 51°13.663 2°55.96 20.9696 0.085533 0.450267 8.889463
2009-07-27 06:55:43 51°13.663 2°55.96 20.969 0.085533 0.450267 8.854639
2009-07-27 06:55:48 51°13.663 2°55.96 20.9695 0.086047 0.453073 8.854639
2009-07-27 06:55:53 51°13.663 2°55.96 20.9705 0.085738 0.451397 8.854639
2009-07-27 06:55:58 51°13.663 2°55.96 20.9701 0.085944 0.45252 8.854639
2009-07-27 06:56:03 51°13.663 2°55.96 20.9707 0.085635 0.450836 8.889463
2009-07-27 06:56:07 51°13.663 2°55.961 20.9704 0.085635 0.450836 8.889463
2009-07-27 06:56:12 51°13.663 2°55.961 20.9707 0.085635 0.450843 8.854639
2009-07-27 06:56:17 51°13.663 2°55.961 20.9707 0.085635 0.450843 8.854639
2009-07-27 06:56:22 51°13.663 2°55.961 20.9722 0.085738 0.451412 8.854639
2009-07-27 06:56:27 51°13.663 2°55.961 20.9746 0.085635 0.450851 8.854639
2009-07-27 06:56:32 51°13.663 2°55.961 20.9761 0.085635 0.450851 8.854639
2009-07-27 06:56:37 51°13.663 2°55.961 20.9792 0.085635 0.450851 8.854639
2009-07-27 06:56:42 51°13.663 2°55.961 20.98 0.085533 0.450297 8.854639
2009-07-27 06:56:47 51°13.662 2°55.961 20.9806 0.085533 0.450297 8.854639
2009-07-27 06:56:51 51°13.662 2°55.961 20.9807 0.08543 0.449744 8.854639
2009-07-27 06:56:56 51°13.662 2°55.961 20.9812 0.08543 0.449744 8.854639
2009-07-27 06:57:01 51°13.662 2°55.961 20.9815 0.08543 0.449744 8.854639
2009-07-27 06:57:06 51°13.662 2°55.961 20.981 0.08543 0.449744 8.854639
2009-07-27 06:57:11 51°13.662 2°55.961 20.9818 0.085533 0.450312 8.854639
2009-07-27 06:57:15 51°13.662 2°55.961 20.9815 0.08543 0.449751 8.854639
2009-07-27 06:57:20 51°13.662 2°55.961 20.9807 0.08543 0.449759 8.854639
2009-07-27 06:57:25 51°13.662 2°55.961 20.9779 0.085533 0.45032 8.854639
2009-07-27 06:57:30 51°13.662 2°55.961 20.9775 0.085635 0.450889 8.889463
2009-07-27 06:57:35 51°13.662 2°55.961 20.9737 0.085635 0.450889 8.889463
2009-07-27 06:57:39 51°13.662 2°55.96 20.9644 0.085738 0.45145 8.854639
2009-07-27 06:57:44 51°13.662 2°55.96 20.9603 0.086047 0.453142 8.854639
2009-07-27 06:57:50 51°13.662 2°55.959 20.9354 0.086459 0.455388 8.854639
2009-07-27 06:57:55 51°13.663 2°55.957 20.9366 0.086356 0.454826 8.854639
2009-07-27 06:58:00 51°13.663 2°55.954 20.9709 0.089649 0.472825 8.854639
2009-07-27 06:58:04 51°13.664 2°55.952 20.9608 0.089649 0.472825 8.854639
2009-07-27 06:58:09 51°13.665 2°55.948 20.9727 0.095104 0.502722 8.854639
2009-07-27 06:58:15 51°13.666 2°55.942 20.9695 0.099426 0.52649 8.854639
2009-07-27 06:58:21 51°13.668 2°55.936 20.9802 0.103028 0.546338 8.854639
2009-07-27 06:58:27 51°13.67 2°55.929 20.9827 0.101587 0.538406 8.854639
2009-07-27 06:58:32 51°13.672 2°55.922 20.9876 0.101175 0.536148 8.854639
2009-07-27 06:58:38 51°13.674 2°55.914 20.9789 0.101175 0.536148 8.854639
2009-07-27 06:58:43 51°13.676 2°55.907 20.9654 0.098911 0.523677 8.854639
2009-07-27 06:58:48 51°13.678 2°55.899 20.9763 0.095206 0.50332 8.854639
2009-07-27 06:58:53 51°13.68 2°55.891 20.9887 0.100661 0.533314 8.854639
2009-07-27 06:58:59 51°13.682 2°55.882 20.989 0.100661 0.533314 8.854639
2009-07-27 06:59:03 51°13.683 2°55.876 20.9979 0.10488 0.556585 8.854639
2009-07-27 06:59:08 51°13.684 2°55.868 20.9976 0.10488 0.556585 8.854639
2009-07-27 06:59:13 51°13.686 2°55.86 20.9985 0.10097 0.535032 8.854639
2009-07-27 06:59:18 51°13.688 2°55.853 20.9983 0.102205 0.541836 8.854639
2009-07-27 06:59:23 51°13.689 2°55.845 20.9983 0.105189 0.558308 8.854639
2009-07-27 06:59:28 51°13.69 2°55.838 20.9989 0.103748 0.550357 8.854639
2009-07-27 06:59:33 51°13.691 2°55.83 20.9989 0.10344 0.548663 8.854639
2009-07-27 06:59:38 51°13.692 2°55.823 20.9988 0.10344 0.548663 8.854639
2009-07-27 06:59:43 51°13.693 2°55.816 20.999 0.103131 0.546961 8.854639
2009-07-27 06:59:48 51°13.694 2°55.809 20.9771 0.10241 0.542998 8.854639
2009-07-27 06:59:54 51°13.694 2°55.8 20.9844 0.099632 0.527684 8.854639
2009-07-27 06:59:58 51°13.695 2°55.794 20.9883 0.103748 0.550376 8.854639
2009-07-27 07:00:03 51°13.695 2°55.787 21.0086 0.111261 0.591926 8.854639
2009-07-27 07:00:08 51°13.696 2°55.78 21.0059 0.111261 0.591926 8.854639
2009-07-27 07:00:14 51°13.696 2°55.773 21.0015 0.106424 0.565176 8.854639
2009-07-27 07:00:18 51°13.696 2°55.767 21.001 0.107968 0.573709 8.854639
2009-07-27 07:00:23 51°13.697 2°55.762 21.0007 0.108483 0.576555 8.854639
2009-07-27 07:00:28 51°13.697 2°55.756 21.0011 0.110129 0.585667 8.854639
2009-07-27 07:00:34 51°13.697 2°55.75 21.002 0.108997 0.579411 8.854639
2009-07-27 07:00:38 51°13.697 2°55.746 20.9957 0.108997 0.579411 8.854639
2009-07-27 07:00:43 51°13.697 2°55.742 21.0121 0.104057 0.552116 8.854639
2009-07-27 07:00:48 51°13.697 2°55.74 21.0093 0.130404 0.698532 8.854639
2009-07-27 07:00:52 51°13.697 2°55.738 21.0129 0.11898 0.634835 8.854639
2009-07-27 07:00:57 51°13.697 2°55.737 21.01 0.119186 0.63599 8.854639
2009-07-27 07:01:02 51°13.698 2°55.737 21.0134 0.115893 0.617685 8.854639
2009-07-27 07:01:07 51°13.698 2°55.736 21.0061 0.115893 0.617685 8.854639
2009-07-27 07:01:12 51°13.699 2°55.737 21.0097 0.114863 0.611971 8.854639
2009-07-27 07:01:16 51°13.699 2°55.737 21.0086 0.11332 0.603406 8.854639
2009-07-27 07:01:22 51°13.7 2°55.738 21.0092 0.113525 0.604558 8.854639
2009-07-27 07:01:27 51°13.701 2°55.739 21.0096 0.113937 0.606831 8.854639
2009-07-27 07:01:31 51°13.701 2°55.74 20.9919 0.102102 0.541378 8.854639
2009-07-27 07:01:36 51°13.702 2°55.741 20.9903 0.102102 0.541378 8.854639
2009-07-27 07:01:41 51°13.703 2°55.742 20.9864 0.101278 0.536823 8.854639
2009-07-27 07:01:46 51°13.704 2°55.743 20.9908 0.099426 0.526614 8.854639
2009-07-27 07:01:51 51°13.704 2°55.743 20.9927 0.099117 0.524915 8.854639
2009-07-27 07:01:55 51°13.704 2°55.743 20.9916 0.100455 0.532279 8.854639
2009-07-27 07:02:00 51°13.704 2°55.742 20.9924 0.098397 0.520952 8.854639
2009-07-27 07:02:05 51°13.703 2°55.742 20.9846 0.098397 0.520952 8.854639
2009-07-27 07:02:10 51°13.703 2°55.741 20.9713 0.104057 0.552144 8.854639
2009-07-27 07:02:15 51°13.701 2°55.74 20.994 0.101999 0.540793 8.854639
2009-07-27 07:02:19 51°13.7 2°55.739 20.9852 0.099735 0.528331 8.854639
2009-07-27 07:02:24 51°13.699 2°55.738 21.0066 0.108688 0.577752 8.854639
2009-07-27 07:02:30 51°13.697 2°55.737 21.0085 0.106939 0.568087 8.854639
2009-07-27 07:02:35 51°13.696 2°55.736 21.0134 0.106939 0.568087 8.854639
2009-07-27 07:02:40 51°13.695 2°55.735 21.0229 0.122171 0.652661 8.854639
2009-07-27 07:02:45 51°13.695 2°55.735 21.0246 0.130507 0.699238 8.854639
2009-07-27 07:02:50 51°13.695 2°55.735 21.0356 0.131845 0.706761 8.854639
2009-07-27 07:02:55 51°13.697 2°55.734 21.0376 0.137917 0.740813 8.854639
2009-07-27 07:03:00 51°13.698 2°55.734 21.0428 0.142034 0.763957 8.854639
2009-07-27 07:03:05 51°13.7 2°55.734 21.048 0.142034 0.763957 8.854639
2009-07-27 07:03:09 51°13.703 2°55.733 21.0503 0.143784 0.773827 8.854639
2009-07-27 07:03:15 51°13.706 2°55.732 21.049 0.137711 0.739695 8.854639
2009-07-27 07:03:20 51°13.71 2°55.73 21.0415 0.15634 0.84473 8.854639
2009-07-27 07:03:25 51°13.714 2°55.727 21.0288 0.134006 0.718927 8.854639
2009-07-27 07:03:29 51°13.719 2°55.724 21.0214 0.121656 0.649893 8.854639
2009-07-27 07:03:35 51°13.726 2°55.719 21.0043 0.121656 0.649893 8.854639
2009-07-27 07:03:40 51°13.732 2°55.713 20.9945 0.114658 0.610952 8.854639
2009-07-27 07:03:45 51°13.739 2°55.708 20.9857 0.111982 0.596089 8.854639
2009-07-27 07:03:50 51°13.747 2°55.701 20.9781 0.109409 0.581827 8.854639
2009-07-27 07:03:55 51°13.755 2°55.695 20.9664 0.10344 0.548821 8.854639
2009-07-27 07:03:59 51°13.761 2°55.689 20.9612 0.106115 0.563575 8.854639
2009-07-27 07:04:04 51°13.77 2°55.683 20.9664 0.106115 0.563575 8.854639
2009-07-27 07:04:10 51°13.78 2°55.674 20.9696 0.10344 0.548802 8.854639
2009-07-27 07:04:15 51°13.789 2°55.667 20.9773 0.0985 0.521597 8.854639
2009-07-27 07:04:19 51°13.797 2°55.661 20.9748 0.101587 0.538588 8.854639
2009-07-27 07:04:24 51°13.806 2°55.653 20.9803 0.099426 0.526694 8.854639
2009-07-27 07:04:30 51°13.818 2°55.644 20.9858 0.098911 0.523871 8.854639
2009-07-27 07:04:35 51°13.828 2°55.637 20.9812 0.098911 0.523871 8.854639
2009-07-27 07:04:39 51°13.836 2°55.63 20.9761 0.101587 0.538615 8.854639
2009-07-27 07:04:44 51°13.846 2°55.623 20.978 0.10169 0.539191 8.854639
2009-07-27 07:04:50 51°13.859 2°55.614 20.9851 0.10169 0.5392 8.854639
2009-07-27 07:04:55 51°13.869 2°55.606 20.9861 0.099941 0.529562 8.854639
2009-07-27 07:04:59 51°13.877 2°55.599 20.9837 0.096853 0.512586 8.854639
2009-07-27 07:05:03 51°13.886 2°55.593 20.9835 0.096853 0.512586 8.854639
2009-07-27 07:05:09 51°13.898 2°55.583 20.9908 0.101175 0.536365 8.854639
2009-07-27 07:05:15 51°13.911 2°55.574 20.9915 0.098603 0.522207 8.854639
2009-07-27 07:05:19 51°13.919 2°55.568 21.0008 0.096338 0.509758 8.854639
2009-07-27 07:05:25 51°13.932 2°55.558 20.9922 0.094074 0.497327 8.854639
2009-07-27 07:05:29 51°13.941 2°55.551 20.9908 0.098191 0.519942 8.854639
2009-07-27 07:05:35 51°13.954 2°55.542 21.0007 0.098191 0.519942 8.854639
2009-07-27 07:05:39 51°13.962 2°55.536 21.0014 0.099117 0.525048 8.854639
2009-07-27 07:05:45 51°13.975 2°55.527 20.9981 0.094383 0.499038 8.854639
2009-07-27 07:05:49 51°13.984 2°55.52 21.0039 0.096647 0.511472 8.854639
2009-07-27 07:05:55 51°13.996 2°55.511 21.0056 0.095721 0.506392 8.854639
2009-07-27 07:05:59 51°14.005 2°55.505 21.0044 0.095206 0.503566 8.854639
2009-07-27 07:06:04 51°14.016 2°55.497 21.0054 0.095206 0.503566 8.854639
2009-07-27 07:06:09 51°14.027 2°55.489 21.0107 0.105086 0.557994 8.854639
2009-07-27 07:06:15 51°14.04 2°55.479 21.0091 0.094898 0.501888 8.854639
2009-07-27 07:06:19 51°14.048 2°55.473 21.0089 0.100146 0.530758 8.854639
2009-07-27 07:06:25 51°14.061 2°55.463 21.0193 0.100043 0.5302 8.819815
2009-07-27 07:06:30 51°14.072 2°55.455 21.0119 0.099117 0.52511 8.854639
2009-07-27 07:06:35 51°14.083 2°55.447 21.009 0.099117 0.52511 8.854639
2009-07-27 07:06:39 51°14.091 2°55.44 21.019 0.101999 0.540993 8.854639
2009-07-27 07:06:45 51°14.104 2°55.43 21.0128 0.097882 0.518323 8.854639
2009-07-27 07:06:50 51°14.115 2°55.422 21.0134 0.103131 0.547247 8.854639
2009-07-27 07:06:55 51°14.125 2°55.413 21.0309 0.104675 0.555768 8.854639
2009-07-27 07:06:59 51°14.133 2°55.406 21.0317 0.104469 0.55465 8.854639
2009-07-27 07:07:03 51°14.142 2°55.398 21.0331 0.104469 0.55465 8.854639
2009-07-27 07:07:10 51°14.156 2°55.385 21.0338 0.105189 0.558647 8.854639
2009-07-27 07:07:15 51°14.166 2°55.375 21.0392 0.109615 0.583134 8.854639
2009-07-27 07:07:19 51°14.174 2°55.366 21.0333 0.107145 0.569465 8.854639
2009-07-27 07:07:24 51°14.184 2°55.355 21.0276 0.102822 0.54558 8.854639
2009-07-27 07:07:30 51°14.195 2°55.341 21.0264 0.110747 0.589405 8.854639
2009-07-27 07:07:35 51°14.205 2°55.329 21.0207 0.110747 0.589405 8.854639
2009-07-27 07:07:39 51°14.212 2°55.32 21.0323 0.107042 0.568896 8.854639
2009-07-27 07:07:45 51°14.223 2°55.304 21.0346 0.113937 0.607108 8.854639
2009-07-27 07:07:49 51°14.23 2°55.294 21.0353 0.108997 0.579734 8.854639
2009-07-27 07:07:55 51°14.24 2°55.278 21.0392 0.111364 0.592847 8.819815
2009-07-27 07:07:59 51°14.247 2°55.267 21.0226 0.103851 0.551278 8.854639
2009-07-27 07:08:05 51°14.257 2°55.25 21.0143 0.103851 0.551278 8.854639
2009-07-27 07:08:09 51°14.263 2°55.239 21.0154 0.100043 0.530272 8.819815
2009-07-27 07:08:15 51°14.273 2°55.221 21.017 0.110541 0.588264 8.854639
2009-07-27 07:08:19 51°14.279 2°55.21 21.0251 0.105498 0.560372 8.819815
2009-07-27 07:08:24 51°14.287 2°55.195 21.0258 0.098706 0.522906 8.854639
2009-07-27 07:08:30 51°14.296 2°55.177 21.0098 0.098603 0.522339 8.854639
2009-07-27 07:08:35 51°14.304 2°55.162 21.0224 0.098603 0.522339 8.854639
2009-07-27 07:08:40 51°14.312 2°55.147 21.0235 0.099941 0.529705 8.854639
2009-07-27 07:08:45 51°14.319 2°55.132 21.0326 0.098088 0.519499 8.819815
2009-07-27 07:08:49 51°14.325 2°55.12 21.0381 0.100249 0.531406 8.854639
2009-07-27 07:08:55 51°14.334 2°55.101 21.0382 0.118363 0.631721 8.854639
2009-07-27 07:08:59 51°14.34 2°55.089 21.0413 0.110335 0.587153 8.854639
2009-07-27 07:09:05 51°14.35 2°55.07 21.0331 0.110335 0.587153 8.854639
2009-07-27 07:09:10 51°14.357 2°55.055 21.0105 0.105395 0.559813 8.819815
2009-07-27 07:09:15 51°14.365 2°55.039 20.9922 0.09181 0.485027 8.819815
2009-07-27 07:09:20 51°14.373 2°55.024 21.0103 0.089855 0.474301 8.854639
2009-07-27 07:09:24 51°14.38 2°55.012 21.0184 0.100043 0.530245 8.819815
2009-07-27 07:09:30 51°14.392 2°54.995 21.034 0.104057 0.552386 8.819815
2009-07-27 07:09:35 51°14.401 2°54.982 21.0213 0.104057 0.552386 8.819815
2009-07-27 07:09:40 51°14.411 2°54.969 21.0192 0.098088 0.519508 8.819815
2009-07-27 07:09:44 51°14.419 2°54.958 20.9933 0.09675 0.512141 8.819815
2009-07-27 07:09:49 51°14.43 2°54.945 21.0338 0.106115 0.563794 8.854639
2009-07-27 07:09:55 51°14.443 2°54.93 21.0363 0.099529 0.527465 8.819815
2009-07-27 07:10:00 51°14.454 2°54.917 21.0338 0.096338 0.509904 8.819815
2009-07-27 07:10:04 51°14.464 2°54.906 21.0268 0.096338 0.509904 8.819815
2009-07-27 07:10:09 51°14.475 2°54.894 21.0367 0.10416 0.55301 8.854639
2009-07-27 07:10:15 51°14.49 2°54.878 21.0369 0.116407 0.6209 8.854639
2009-07-27 07:10:20 51°14.502 2°54.865 21.0198 0.104263 0.553625 8.819815
2009-07-27 07:10:24 51°14.512 2°54.853 21.031 0.098397 0.521285 8.819815
2009-07-27 07:10:29 51°14.524 2°54.84 21.0387 0.100764 0.534304 8.819815
2009-07-27 07:10:35 51°14.54 2°54.825 21.0261 0.100764 0.534304 8.819815
2009-07-27 07:10:40 51°14.553 2°54.812 21.0383 0.103234 0.547916 8.819815
2009-07-27 07:10:45 51°14.566 2°54.798 21.0356 0.101484 0.538257 8.819815
2009-07-27 07:10:49 51°14.576 2°54.788 21.0234 0.102719 0.545058 8.819815
2009-07-27 07:10:55 51°14.592 2°54.772 21.0348 0.099941 0.52975 8.854639
2009-07-27 07:11:00 51°14.606 2°54.76 21.0385 0.103337 0.548484 8.819815
2009-07-27 07:11:05 51°14.619 2°54.746 21.0303 0.103337 0.548484 8.819815
2009-07-27 07:11:10 51°14.633 2°54.733 21.0337 0.102719 0.545077 8.819815
2009-07-27 07:11:15 51°14.646 2°54.72 21.0256 0.095824 0.507119 8.819815
2009-07-27 07:11:20 51°14.66 2°54.707 21.0342 0.093663 0.495252 8.819815
2009-07-27 07:11:25 51°14.674 2°54.693 21.0301 0.091399 0.482836 8.819815
2009-07-27 07:11:29 51°14.685 2°54.683 21.0145 0.092119 0.486768 8.819815
2009-07-27 07:11:35 51°14.702 2°54.666 21.0325 0.092119 0.486768 8.819815
2009-07-27 07:11:40 51°14.716 2°54.653 21.0243 0.096236 0.509364 8.819815
2009-07-27 07:11:44 51°14.728 2°54.642 21.0187 0.091296 0.482264 8.819815
2009-07-27 07:11:50 51°14.745 2°54.626 21.023 0.094177 0.498084 8.819815
2009-07-27 07:11:55 51°14.759 2°54.612 21.004 0.091913 0.485672 8.819815
2009-07-27 07:12:00 51°14.773 2°54.599 21.0195 0.092325 0.487921 8.819815
2009-07-27 07:12:04 51°14.784 2°54.589 21.0263 0.092325 0.487921 8.819815
2009-07-27 07:12:09 51°14.799 2°54.576 21.0164 0.087076 0.45919 8.819815
2009-07-27 07:12:15 51°14.815 2°54.56 21.0172 0.089958 0.474944 8.854639
2009-07-27 07:12:20 51°14.829 2°54.548 21.0116 0.089443 0.472127 8.854639
2009-07-27 07:12:24 51°14.841 2°54.537 21.004 0.087591 0.461995 8.854639
2009-07-27 07:12:29 51°14.854 2°54.524 21.0344 0.086767 0.457495 8.819815
2009-07-27 07:12:35 51°14.871 2°54.508 21.0161 0.086767 0.457495 8.819815
2009-07-27 07:12:40 51°14.885 2°54.495 21.0136 0.085018 0.447949 8.854639
2009-07-27 07:12:44 51°14.897 2°54.485 21.0307 0.093354 0.493582 8.819815
2009-07-27 07:12:49 51°14.911 2°54.472 21.0412 0.095927 0.507728 8.819815
2009-07-27 07:12:55 51°14.928 2°54.457 21.0225 0.098294 0.520772 8.819815
2009-07-27 07:13:00 51°14.942 2°54.444 21.0424 0.093354 0.493632 8.819815
2009-07-27 07:13:05 51°14.956 2°54.432 21.0428 0.093354 0.493632 8.819815
2009-07-27 07:13:09 51°14.968 2°54.421 21.0432 0.097265 0.515135 8.819815
2009-07-27 07:13:15 51°14.985 2°54.406 21.0388 0.093971 0.49703 8.819815
2009-07-27 07:13:20 51°14.999 2°54.393 21.0383 0.088414 0.466551 8.854639
2009-07-27 07:13:25 51°15.014 2°54.381 21.0487 0.086665 0.456964 8.819815
2009-07-27 07:13:29 51°15.025 2°54.371 21.0188 0.095618 0.50604 8.819815
2009-07-27 07:13:35 51°15.042 2°54.355 21.0235 0.095618 0.50604 8.819815
2009-07-27 07:13:40 51°15.057 2°54.343 21.0356 0.09181 0.485133 8.819815
2009-07-27 07:13:45 51°15.071 2°54.33 21.0243 0.091399 0.482876 8.819815
2009-07-27 07:13:50 51°15.086 2°54.318 21.0271 0.091399 0.482876 8.819815
2009-07-27 07:13:55 51°15.1 2°54.305 21.0306 0.088311 0.465988 8.819815
2009-07-27 07:14:00 51°15.114 2°54.292 21.022 0.089237 0.471072 8.854639
2009-07-27 07:14:04 51°15.126 2°54.283 21.0399 0.089237 0.471072 8.854639
2009-07-27 07:14:10 51°15.143 2°54.267 21.0296 0.094177 0.498176 8.819815
2009-07-27 07:14:15 51°15.158 2°54.255 21.0354 0.084298 0.444101 8.819815
2009-07-27 07:14:20 51°15.172 2°54.242 21.0484 0.085121 0.448579 8.819815
2009-07-27 07:14:24 51°15.183 2°54.232 21.0443 0.0985 0.521922 8.854639
2009-07-27 07:14:29 51°15.198 2°54.219 21.0305 0.097573 0.516834 8.819815
2009-07-27 07:14:35 51°15.215 2°54.204 21.0262 0.097573 0.516834 8.819815
2009-07-27 07:14:40 51°15.229 2°54.191 21.0251 0.093766 0.4959 8.819815
2009-07-27 07:14:44 51°15.24 2°54.18 21.0372 0.098294 0.520772 8.854639
2009-07-27 07:14:49 51°15.254 2°54.167 21.0367 0.093251 0.493051 8.819815
2009-07-27 07:14:55 51°15.272 2°54.152 21.0062 0.098294 0.520754 8.819815
2009-07-27 07:15:00 51°15.286 2°54.14 21.0398 0.089546 0.472754 8.784991
2009-07-27 07:15:04 51°15.297 2°54.13 21.0286 0.089546 0.472754 8.784991
2009-07-27 07:15:09 51°15.312 2°54.117 21.0362 0.088105 0.464878 8.819815
2009-07-27 07:15:15 51°15.329 2°54.102 21.0198 0.091707 0.484601 8.854639
2009-07-27 07:15:20 51°15.343 2°54.089 21.0412 0.093354 0.493632 8.819815
2009-07-27 07:15:25 51°15.358 2°54.077 21.0447 0.093354 0.493657 8.819815
2009-07-27 07:15:29 51°15.369 2°54.067 21.0141 0.090575 0.47843 8.819815
2009-07-27 07:15:35 51°15.387 2°54.052 21.0081 0.090575 0.47843 8.819815
2009-07-27 07:15:40 51°15.401 2°54.039 21.0247 0.09109 0.481241 8.819815
2009-07-27 07:15:45 51°15.416 2°54.027 21.0117 0.097162 0.514595 8.819815
2009-07-27 07:15:49 51°15.428 2°54.018 21.0208 0.100558 0.533295 8.819815
2009-07-27 07:15:55 51°15.445 2°54.003 21.015 0.093663 0.495385 8.819815
2009-07-27 07:16:00 51°15.459 2°53.991 21.0249 0.092222 0.487488 8.819815
2009-07-27 07:16:04 51°15.471 2°53.981 21.0464 0.092222 0.487488 8.819815
2009-07-27 07:16:10 51°15.488 2°53.967 21.0491 0.104057 0.552657 8.819815
2009-07-27 07:16:15 51°15.503 2°53.955 21.0519 0.096956 0.513506 8.819815
2009-07-27 07:16:20 51°15.517 2°53.943 21.051 0.095618 0.506125 8.854639
2009-07-27 07:16:24 51°15.529 2°53.933 21.0233 0.101999 0.541258 8.819815
2009-07-27 07:16:30 51°15.546 2°53.918 21.045 0.096544 0.511208 8.819815
2009-07-27 07:16:35 51°15.561 2°53.905 21.0374 0.096544 0.511208 8.819815
2009-07-27 07:16:40 51°15.575 2°53.892 21.0356 0.088517 0.467169 8.819815
2009-07-27 07:16:44 51°15.586 2°53.881 21.0267 0.08862 0.467724 8.819815
2009-07-27 07:16:49 51°15.6 2°53.868 21.0362 0.088929 0.469414 8.819815
2009-07-27 07:16:55 51°15.618 2°53.853 21.0477 0.093148 0.492544 8.819815
2009-07-27 07:17:00 51°15.632 2°53.841 21.0259 0.101896 0.540727 8.819815
2009-07-27 07:17:04 51°15.643 2°53.831 21.0154 0.101896 0.540727 8.819815
2009-07-27 07:17:09 51°15.658 2°53.818 21.0368 0.088723 0.468358 8.819815
2009-07-27 07:17:15 51°15.675 2°53.803 21.0273 0.09109 0.481314 8.819815
2009-07-27 07:17:20 51°15.689 2°53.79 21.0186 0.095309 0.504471 8.819815
2009-07-27 07:17:24 51°15.701 2°53.781 21.0315 0.096544 0.511268 8.819815
2009-07-27 07:17:29 51°15.715 2°53.768 21.0456 0.096647 0.511834 8.819815
2009-07-27 07:17:35 51°15.733 2°53.753 21.0333 0.096647 0.511834 8.819815
2009-07-27 07:17:40 51°15.747 2°53.741 21.0432 0.091296 0.482434 8.819815
2009-07-27 07:17:45 51°15.762 2°53.728 21.041 0.093766 0.496 8.819815
2009-07-27 07:17:49 51°15.773 2°53.718 21.0349 0.095721 0.506733 8.819815
2009-07-27 07:17:55 51°15.79 2°53.703 21.0484 0.092634 0.489795 8.819815
2009-07-27 07:18:00 51°15.805 2°53.69 21.04 0.096956 0.51355 8.819815
2009-07-27 07:18:05 51°15.819 2°53.678 21.0258 0.096956 0.51355 8.819815
2009-07-27 07:18:09 51°15.831 2°53.667 21.0466 0.090369 0.477391 8.819815
2009-07-27 07:18:15 51°15.849 2°53.652 21.049 0.093148 0.492635 8.819815
2009-07-27 07:18:20 51°15.863 2°53.639 21.0463 0.088208 0.465558 8.819815
2009-07-27 07:18:24 51°15.875 2°53.629 21.0489 0.090164 0.476263 8.819815
2009-07-27 07:18:30 51°15.892 2°53.614 21.0368 0.088723 0.468374 8.819815
2009-07-27 07:18:35 51°15.907 2°53.602 21.0547 0.088723 0.468374 8.819815
2009-07-27 07:18:40 51°15.921 2°53.589 21.0497 0.094898 0.50226 8.819815
2009-07-27 07:18:45 51°15.936 2°53.576 21.0529 0.091193 0.481943 8.819815
2009-07-27 07:18:49 51°15.947 2°53.566 21.0331 0.093663 0.495502 8.819815
2009-07-27 07:18:55 51°15.965 2°53.551 21.0405 0.093457 0.494397 8.819815
2009-07-27 07:19:00 51°15.979 2°53.538 21.0487 0.089546 0.472969 8.819815
2009-07-27 07:19:05 51°15.993 2°53.525 21.0608 0.089546 0.472969 8.819815
2009-07-27 07:19:09 51°16.005 2°53.515 21.062 0.10097 0.535781 8.819815
2009-07-27 07:19:14 51°16.019 2°53.502 21.0522 0.09109 0.481427 8.819815
2009-07-27 07:19:20 51°16.037 2°53.487 21.0539 0.08934 0.471802 8.819815
2009-07-27 07:19:25 51°16.051 2°53.474 21.0437 0.099117 0.525481 8.819815
2009-07-27 07:19:30 51°16.066 2°53.462 21.0552 0.094589 0.500555 8.819815
2009-07-27 07:19:35 51°16.08 2°53.449 21.0541 0.094589 0.500555 8.819815
2009-07-27 07:19:40 51°16.095 2°53.436 21.0525 0.094383 0.499433 8.819815
2009-07-27 07:19:45 51°16.11 2°53.424 21.0497 0.090267 0.476867 8.784991
2009-07-27 07:19:49 51°16.121 2°53.414 21.0634 0.088414 0.466732 8.819815
2009-07-27 07:19:54 51°16.136 2°53.401 21.0551 0.096544 0.511372 8.819815
2009-07-27 07:19:59 51°16.15 2°53.389 21.0605 0.091399 0.483144 8.819815
2009-07-27 07:20:05 51°16.168 2°53.374 21.0647 0.091399 0.483144 8.819815
2009-07-27 07:20:09 51°16.18 2°53.364 21.0629 0.092325 0.488233 8.819815
2009-07-27 07:20:14 51°16.194 2°53.351 21.0435 0.093354 0.49389 8.819815
2009-07-27 07:20:19 51°16.208 2°53.338 21.0656 0.095927 0.508027 8.819815
2009-07-27 07:20:25 51°16.226 2°53.323 21.07 0.101278 0.537548 8.819815
2009-07-27 07:20:29 51°16.237 2°53.313 21.0693 0.099632 0.52845 8.819815
2009-07-27 07:20:35 51°16.254 2°53.297 21.0642 0.099632 0.52845 8.819815
2009-07-27 07:20:39 51°16.265 2°53.286 21.06 0.094795 0.501812 8.784991
2009-07-27 07:20:45 51°16.282 2°53.27 21.0645 0.093148 0.49276 8.819815
2009-07-27 07:20:49 51°16.294 2°53.259 21.0614 0.093869 0.496716 8.819815
2009-07-27 07:20:55 51°16.311 2°53.244 21.0598 0.087076 0.459483 8.819815
2009-07-27 07:20:59 51°16.322 2°53.233 21.068 0.087591 0.46229 8.819815
2009-07-27 07:21:05 51°16.339 2°53.217 21.0624 0.087591 0.46229 8.819815
2009-07-27 07:21:10 51°16.353 2°53.204 21.0688 0.097059 0.514263 8.819815
2009-07-27 07:21:15 51°16.367 2°53.191 21.0598 0.097265 0.515387 8.819815
2009-07-27 07:21:19 51°16.379 2°53.18 21.046 0.093251 0.493325 8.819815
2009-07-27 07:21:25 51°16.396 2°53.164 21.0596 0.091296 0.482596 8.819815
2009-07-27 07:21:29 51°16.407 2°53.154 21.0607 0.093354 0.493898 8.819815
2009-07-27 07:21:35 51°16.424 2°53.138 21.0578 0.093354 0.493898 8.819815
2009-07-27 07:21:39 51°16.436 2°53.127 21.0462 0.085738 0.452178 8.819815
2009-07-27 07:21:45 51°16.453 2°53.112 21.0506 0.091296 0.482604 8.819815
2009-07-27 07:21:49 51°16.464 2°53.101 21.0557 0.096544 0.511458 8.819815
2009-07-27 07:21:55 51°16.481 2°53.085 21.0693 0.094383 0.499601 8.819815
2009-07-27 07:22:00 51°16.496 2°53.072 21.0779 0.097265 0.515465 8.854639
2009-07-27 07:22:05 51°16.51 2°53.059 21.0615 0.097265 0.515465 8.854639
2009-07-27 07:22:09 51°16.521 2°53.049 21.0614 0.093869 0.496816 8.819815
2009-07-27 07:22:15 51°16.538 2°53.033 21.078 0.091193 0.482105 8.819815
2009-07-27 07:22:19 51°16.55 2°53.023 21.0814 0.092222 0.487742 8.819815
2009-07-27 07:22:25 51°16.567 2°53.008 21.0818 0.088929 0.469682 8.819815
2009-07-27 07:22:29 51°16.579 2°52.998 21.0748 0.10982 0.584837 8.819815
2009-07-27 07:22:35 51°16.596 2°52.982 21.0692 0.10982 0.584837 8.819815
2009-07-27 07:22:39 51°16.608 2°52.972 21.0598 0.095927 0.508104 8.819815
2009-07-27 07:22:45 51°16.625 2°52.957 21.0713 0.091604 0.484338 8.784991
2009-07-27 07:22:49 51°16.637 2°52.947 21.0702 0.095309 0.504649 8.819815
2009-07-27 07:22:55 51°16.654 2°52.931 21.0659 0.088311 0.466239 8.784991
2009-07-27 07:23:00 51°16.668 2°52.919 21.0836 0.100352 0.532394 8.819815
2009-07-27 07:23:05 51°16.683 2°52.906 21.0805 0.100352 0.532394 8.819815
2009-07-27 07:23:10 51°16.698 2°52.895 21.0599 0.094692 0.501289 8.819815
2009-07-27 07:23:14 51°16.709 2°52.885 21.0682 0.093766 0.496251 8.819815
2009-07-27 07:23:20 51°16.727 2°52.87 21.0662 0.091399 0.483307 8.819815
2009-07-27 07:23:25 51°16.741 2°52.857 21.071 0.088826 0.46919 8.819815
2009-07-27 07:23:29 51°16.753 2°52.847 21.0831 0.087591 0.462414 8.784991
2009-07-27 07:23:34 51°16.767 2°52.834 21.08 0.087591 0.462414 8.784991
2009-07-27 07:23:40 51°16.784 2°52.819 21.0854 0.090369 0.477632 8.819815
2009-07-27 07:23:45 51°16.799 2°52.806 21.0819 0.096339 0.510429 8.819815
2009-07-27 07:23:49 51°16.81 2°52.796 21.065 0.100867 0.53544 8.819815
2009-07-27 07:23:54 51°16.825 2°52.784 21.0551 0.099117 0.525881 8.819815
2009-07-27 07:24:00 51°16.842 2°52.769 21.0804 0.089135 0.471 8.819815
2009-07-27 07:24:05 51°16.856 2°52.756 21.0676 0.089135 0.471 8.819815
2009-07-27 07:24:10 51°16.871 2°52.744 21.0836 0.083371 0.439433 8.819815
2009-07-27 07:24:14 51°16.882 2°52.734 21.0859 0.094692 0.501416 8.819815
2009-07-27 07:24:20 51°16.9 2°52.721 21.0681 0.091399 0.483307 8.819815
2009-07-27 07:24:25 51°16.915 2°52.709 21.087 0.093663 0.495727 8.784991
2009-07-27 07:24:30 51°16.93 2°52.698 21.0738 0.087385 0.461311 8.819815
2009-07-27 07:24:34 51°16.942 2°52.689 21.0794 0.087385 0.461311 8.819815
2009-07-27 07:24:40 51°16.96 2°52.677 21.0647 0.092942 0.491821 8.819815
2009-07-27 07:24:45 51°16.975 2°52.666 21.0939 0.099838 0.52979 8.819815
2009-07-27 07:24:49 51°16.987 2°52.658 21.0949 0.095927 0.50831 8.784991
2009-07-27 07:24:54 51°17.003 2°52.647 21.0839 0.091913 0.486237 8.819815
2009-07-27 07:24:59 51°17.018 2°52.637 21.0967 0.101381 0.538343 8.819815
2009-07-27 07:25:05 51°17.036 2°52.625 21.099 0.101381 0.538343 8.819815
2009-07-27 07:25:10 51°17.051 2°52.615 21.0977 0.096956 0.513966 8.819815
2009-07-27 07:25:15 51°17.066 2°52.605 21.0971 0.096441 0.511133 8.819815
2009-07-27 07:25:20 51°17.082 2°52.595 21.0902 0.105395 0.560589 8.819815
2009-07-27 07:25:25 51°17.097 2°52.584 21.0793 0.101999 0.541862 8.784991
2009-07-27 07:25:30 51°17.112 2°52.574 21.0844 0.092942 0.491945 8.784991
2009-07-27 07:25:35 51°17.127 2°52.564 21.0909 0.092942 0.491945 8.784991
2009-07-27 07:25:39 51°17.139 2°52.556 21.0881 0.090575 0.478929 8.784991
2009-07-27 07:25:45 51°17.158 2°52.544 21.1042 0.103543 0.550317 8.819815
2009-07-27 07:25:50 51°17.173 2°52.534 21.1067 0.094795 0.502117 8.819815
2009-07-27 07:25:55 51°17.189 2°52.524 21.0712 0.10735 0.571491 8.819815
2009-07-27 07:26:00 51°17.204 2°52.514 21.093 0.100249 0.532267 8.819815
2009-07-27 07:26:05 51°17.219 2°52.504 21.1064 0.100249 0.532267 8.819815
2009-07-27 07:26:10 51°17.235 2°52.494 21.0985 0.093457 0.494855 8.819815
2009-07-27 07:26:14 51°17.247 2°52.487 21.1119 0.096853 0.513546 8.784991
2009-07-27 07:26:20 51°17.265 2°52.475 21.1008 0.092942 0.492061 8.819815
2009-07-27 07:26:25 51°17.281 2°52.465 21.0928 0.096133 0.509632 8.819815
2009-07-27 07:26:30 51°17.296 2°52.455 21.108 0.100661 0.534629 8.819815
2009-07-27 07:26:34 51°17.308 2°52.447 21.0827 0.100661 0.534629 8.819815
2009-07-27 07:26:40 51°17.327 2°52.435 21.0764 0.092839 0.491562 8.784991
2009-07-27 07:26:45 51°17.342 2°52.426 21.0551 0.083268 0.43907 8.784991
2009-07-27 07:26:50 51°17.358 2°52.418 21.0637 0.082548 0.435094 8.819815
2009-07-27 07:26:54 51°17.371 2°52.414 21.0836 0.115687 0.617764 8.819815
2009-07-27 07:26:59 51°17.387 2°52.411 21.112 0.085224 0.449692 8.819815
2009-07-27 07:27:05 51°17.406 2°52.409 21.0758 0.085224 0.449692 8.819815
2009-07-27 07:27:10 51°17.423 2°52.406 21.1019 0.114863 0.613288 8.819815
2009-07-27 07:27:14 51°17.436 2°52.407 21.0667 0.090678 0.479696 8.819815
2009-07-27 07:27:19 51°17.452 2°52.407 21.1001 0.097779 0.51871 8.819815
2009-07-27 07:27:25 51°17.471 2°52.409 21.1029 0.085841 0.453189 8.784991
2009-07-27 07:27:30 51°17.487 2°52.413 21.0897 0.096133 0.509675 8.784991
2009-07-27 07:27:35 51°17.504 2°52.416 21.0988 0.096133 0.509675 8.784991
2009-07-27 07:27:39 51°17.516 2°52.421 21.0964 0.083371 0.439699 8.784991
2009-07-27 07:27:45 51°17.535 2°52.427 21.0929 0.090781 0.480268 8.784991
2009-07-27 07:27:50 51°17.551 2°52.434 21.0898 0.102205 0.543237 8.784991
2009-07-27 07:27:55 51°17.567 2°52.441 21.1051 0.093766 0.496753 8.819815
2009-07-27 07:28:00 51°17.583 2°52.447 21.1127 0.090267 0.477526 8.819815
2009-07-27 07:28:05 51°17.598 2°52.455 21.0927 0.090267 0.477526 8.819815
2009-07-27 07:28:10 51°17.614 2°52.462 21.1104 0.091604 0.484861 8.819815
2009-07-27 07:28:15 51°17.63 2°52.47 21.1198 0.096133 0.509769 8.819815
2009-07-27 07:28:19 51°17.642 2°52.476 21.1087 0.090781 0.480349 8.819815
2009-07-27 07:28:25 51°17.661 2°52.486 21.0956 0.083268 0.439203 8.784991
2009-07-27 07:28:30 51°17.676 2°52.495 21.0717 0.079769 0.420068 8.819815
2009-07-27 07:28:35 51°17.692 2°52.503 21.1031 0.079769 0.420068 8.819815
2009-07-27 07:28:40 51°17.706 2°52.515 21.1161 0.101278 0.538129 8.784991
2009-07-27 07:28:45 51°17.72 2°52.528 21.1082 0.081725 0.430835 8.819815
2009-07-27 07:28:50 51°17.735 2°52.54 21.11 0.096441 0.511634 8.784991
2009-07-27 07:28:54 51°17.745 2°52.552 21.1091 0.086768 0.458558 8.784991
2009-07-27 07:28:59 51°17.759 2°52.565 21.0997 0.07874 0.414666 8.784991
2009-07-27 07:29:05 51°17.774 2°52.583 21.1028 0.07874 0.414666 8.784991
2009-07-27 07:29:10 51°17.787 2°52.599 21.11 0.094486 0.500867 8.819815
2009-07-27 07:29:15 51°17.798 2°52.617 21.1075 0.087179 0.460759 8.784991
2009-07-27 07:29:19 51°17.808 2°52.63 21.1168 0.086562 0.457408 8.819815
2009-07-27 07:29:25 51°17.821 2°52.653 21.102 0.092222 0.488499 8.784991
2009-07-27 07:29:30 51°17.832 2°52.671 21.1275 0.08934 0.472684 8.784991
2009-07-27 07:29:34 51°17.84 2°52.687 21.1274 0.08934 0.472684 8.784991
2009-07-27 07:29:39 51°17.85 2°52.707 21.1143 0.090472 0.478921 8.819815
2009-07-27 07:29:45 51°17.863 2°52.731 21.1166 0.091399 0.483992 8.784991
2009-07-27 07:29:50 51°17.872 2°52.751 21.1058 0.092942 0.492451 8.819815
2009-07-27 07:29:55 51°17.882 2°52.771 21.1343 0.094692 0.50211 8.819815
2009-07-27 07:29:59 51°17.89 2°52.788 21.1231 0.094589 0.501535 8.784991
2009-07-27 07:30:05 51°17.901 2°52.813 21.122 0.094589 0.501535 8.784991
2009-07-27 07:30:10 51°17.91 2°52.834 21.1408 0.089649 0.474402 8.819815
2009-07-27 07:30:15 51°17.92 2°52.854 21.1197 0.093045 0.493075 8.819815
2009-07-27 07:30:19 51°17.927 2°52.871 21.1439 0.091399 0.483984 8.784991
2009-07-27 07:30:25 51°17.938 2°52.897 21.1306 0.084503 0.446175 8.819815
2009-07-27 07:30:30 51°17.948 2°52.918 21.132 0.087385 0.461917 8.819815
2009-07-27 07:30:34 51°17.955 2°52.934 21.1282 0.087385 0.461917 8.819815
2009-07-27 07:30:39 51°17.964 2°52.955 21.1305 0.091296 0.483386 8.784991
2009-07-27 07:30:45 51°17.975 2°52.98 21.1448 0.087385 0.461948 8.784991
2009-07-27 07:30:50 51°17.984 2°53.002 21.1473 0.087694 0.463679 8.819815
2009-07-27 07:30:54 51°17.992 2°53.019 21.1401 0.093663 0.496497 8.784991
2009-07-27 07:31:00 51°18.003 2°53.044 21.1406 0.094692 0.502203 8.819815
2009-07-27 07:31:05 51°18.012 2°53.065 21.1449 0.094692 0.502203 8.819815
2009-07-27 07:31:10 51°18.021 2°53.086 21.1368 0.088002 0.465458 8.784991
2009-07-27 07:31:14 51°18.028 2°53.103 21.1329 0.093457 0.495407 8.784991
2009-07-27 07:31:19 51°18.038 2°53.124 21.1331 0.090678 0.4801 8.784991
2009-07-27 07:31:25 51°18.049 2°53.149 21.136 0.09109 0.482353 8.819815
2009-07-27 07:31:30 51°18.058 2°53.17 21.1493 0.097368 0.516913 8.784991
2009-07-27 07:31:34 51°18.065 2°53.187 21.1476 0.097368 0.516913 8.784991
2009-07-27 07:31:39 51°18.074 2°53.208 21.1483 0.091913 0.486868 8.819815
2009-07-27 07:31:45 51°18.086 2°53.234 21.1436 0.089135 0.471611 8.784991
2009-07-27 07:31:50 51°18.095 2°53.255 21.1497 0.092428 0.489697 8.784991
2009-07-27 07:31:55 51°18.104 2°53.276 21.1514 0.090472 0.478954 8.819815
2009-07-27 07:31:59 51°18.111 2°53.293 21.1601 0.090987 0.481796 8.819815
2009-07-27 07:32:05 51°18.122 2°53.318 21.1429 0.090987 0.481796 8.819815
2009-07-27 07:32:10 51°18.132 2°53.339 21.1591 0.092428 0.489738 8.819815
2009-07-27 07:32:15 51°18.14 2°53.36 21.1578 0.091193 0.482975 8.784991
2009-07-27 07:32:19 51°18.148 2°53.377 21.1584 0.092942 0.492618 8.784991
2009-07-27 07:32:25 51°18.158 2°53.403 21.1595 0.086356 0.45645 8.819815
2009-07-27 07:32:30 51°18.168 2°53.424 21.1581 0.09181 0.48636 8.784991
2009-07-27 07:32:35 51°18.177 2°53.445 21.1573 0.09181 0.48636 8.784991
2009-07-27 07:32:39 51°18.184 2°53.462 21.159 0.093766 0.497122 8.819815
2009-07-27 07:32:45 51°18.195 2°53.487 21.1612 0.100764 0.535714 8.784991
2009-07-27 07:32:50 51°18.204 2°53.509 21.1573 0.092119 0.48809 8.819815
2009-07-27 07:32:54 51°18.211 2°53.526 21.1509 0.087797 0.464345 8.784991
2009-07-27 07:32:59 51°18.22 2°53.547 21.1618 0.091913 0.486959 8.784991
2009-07-27 07:33:05 51°18.231 2°53.573 21.171 0.091913 0.486959 8.784991
2009-07-27 07:33:10 51°18.24 2°53.594 21.153 0.096647 0.51308 8.784991
2009-07-27 07:33:15 51°18.249 2°53.615 21.1667 0.094383 0.500639 8.784991
2009-07-27 07:33:19 51°18.256 2°53.632 21.1584 0.093045 0.493317 8.819815
2009-07-27 07:33:25 51°18.267 2°53.658 21.157 0.092737 0.491627 8.784991
2009-07-27 07:33:30 51°18.276 2°53.679 21.1613 0.098808 0.525199 8.819815
2009-07-27 07:33:34 51°18.283 2°53.696 21.1613 0.098808 0.525199 8.819815
2009-07-27 07:33:39 51°18.292 2°53.717 21.1557 0.08687 0.459455 8.784991
2009-07-27 07:33:45 51°18.303 2°53.742 21.1711 0.088723 0.469551 8.819815
2009-07-27 07:33:50 51°18.312 2°53.764 21.1489 0.086047 0.454828 8.784991
2009-07-27 07:33:54 51°18.32 2°53.78 21.1696 0.094898 0.503413 8.784991
2009-07-27 07:33:59 51°18.329 2°53.802 21.1563 0.085635 0.452543 8.784991
2009-07-27 07:34:05 51°18.339 2°53.827 21.1704 0.085635 0.452543 8.784991
2009-07-27 07:34:10 51°18.348 2°53.848 21.1743 0.094692 0.50228 8.819815
2009-07-27 07:34:15 51°18.357 2°53.87 21.1675 0.093766 0.497231 8.784991
2009-07-27 07:34:19 51°18.364 2°53.887 21.1534 0.08687 0.459338 8.819815
2009-07-27 07:34:25 51°18.375 2°53.912 21.1464 0.096956 0.514808 8.819815
2009-07-27 07:34:30 51°18.384 2°53.934 21.1646 0.090678 0.480295 8.784991
2009-07-27 07:34:35 51°18.393 2°53.955 21.1639 0.090678 0.480295 8.784991
2009-07-27 07:34:39 51°18.399 2°53.973 21.1769 0.096133 0.510381 8.784991
2009-07-27 07:34:45 51°18.41 2°53.999 21.1449 0.092222 0.488854 8.819815
2009-07-27 07:34:50 51°18.418 2°54.02 21.179 0.099529 0.529169 8.784991
2009-07-27 07:34:55 51°18.427 2°54.042 21.1677 0.096133 0.51039 8.784991
2009-07-27 07:34:59 51°18.434 2°54.06 21.1877 0.093766 0.497315 8.784991
2009-07-27 07:35:05 51°18.444 2°54.086 21.1754 0.093766 0.497315 8.784991
2009-07-27 07:35:10 51°18.453 2°54.107 21.1757 0.090575 0.479729 8.784991
2009-07-27 07:35:15 51°18.462 2°54.129 21.1824 0.086973 0.459941 8.784991
2009-07-27 07:35:20 51°18.47 2°54.15 21.1778 0.09356 0.496107 8.784991
2009-07-27 07:35:25 51°18.479 2°54.172 21.1602 0.097265 0.516564 8.819815
2009-07-27 07:35:30 51°18.487 2°54.194 21.1696 0.092119 0.488239 8.784991
2009-07-27 07:35:34 51°18.494 2°54.211 21.1776 0.092119 0.488239 8.784991
2009-07-27 07:35:39 51°18.503 2°54.233 21.1819 0.091399 0.48427 8.819815
2009-07-27 07:35:45 51°18.513 2°54.259 21.1709 0.093663 0.496724 8.784991
2009-07-27 07:35:50 51°18.522 2°54.281 21.1696 0.09356 0.496165 8.819815
2009-07-27 07:35:55 51°18.531 2°54.303 21.1826 0.092634 0.491102 8.819815
2009-07-27 07:35:59 51°18.538 2°54.32 21.1765 0.089443 0.473608 8.819815
2009-07-27 07:36:05 51°18.548 2°54.346 21.1883 0.089443 0.473608 8.819815
2009-07-27 07:36:10 51°18.557 2°54.367 21.1923 0.098911 0.525776 8.784991
2009-07-27 07:36:14 51°18.564 2°54.385 21.1948 0.092839 0.492368 8.784991
2009-07-27 07:36:19 51°18.572 2°54.407 21.1908 0.09037 0.478809 8.784991
2009-07-27 07:36:25 51°18.583 2°54.432 21.1883 0.093972 0.498642 8.819815
2009-07-27 07:36:30 51°18.591 2°54.454 21.1781 0.089958 0.476539 8.784991
2009-07-27 07:36:35 51°18.6 2°54.476 21.1982 0.089958 0.476539 8.784991
2009-07-27 07:36:39 51°18.606 2°54.493 21.1857 0.091193 0.483277 8.819815
2009-07-27 07:36:45 51°18.617 2°54.519 21.1976 0.099735 0.530342 8.819815
2009-07-27 07:36:50 51°18.626 2°54.54 21.1903 0.099323 0.52805 8.784991
2009-07-27 07:36:55 51°18.635 2°54.562 21.188 0.092737 0.491735 8.819815
2009-07-27 07:37:00 51°18.643 2°54.584 21.1929 0.089546 0.474173 8.784991
2009-07-27 07:37:05 51°18.652 2°54.605 21.1902 0.089546 0.474173 8.784991
2009-07-27 07:37:10 51°18.661 2°54.627 21.2001 0.093457 0.495691 8.784991
2009-07-27 07:37:15 51°18.67 2°54.648 21.2016 0.097779 0.519561 8.784991
2009-07-27 07:37:20 51°18.679 2°54.669 21.2077 0.088208 0.466885 8.819815
2009-07-27 07:37:25 51°18.688 2°54.69 21.1831 0.092531 0.490685 8.784991
2009-07-27 07:37:30 51°18.697 2°54.711 21.1763 0.089855 0.475957 8.784991
2009-07-27 07:37:35 51°18.706 2°54.732 21.1876 0.089855 0.475957 8.784991
2009-07-27 07:37:40 51°18.715 2°54.753 21.2013 0.090678 0.480457 8.784991
2009-07-27 07:37:45 51°18.723 2°54.774 21.2127 0.095104 0.50482 8.784991
2009-07-27 07:37:50 51°18.732 2°54.796 21.2117 0.092325 0.489503 8.784991
2009-07-27 07:37:55 51°18.741 2°54.817 21.199 0.092325 0.489519 8.819815
2009-07-27 07:38:00 51°18.75 2°54.838 21.2052 0.09181 0.486689 8.819815
2009-07-27 07:38:05 51°18.759 2°54.859 21.2065 0.09181 0.486689 8.819815
2009-07-27 07:38:10 51°18.767 2°54.88 21.2137 0.090987 0.482162 8.784991
2009-07-27 07:38:14 51°18.775 2°54.897 21.2136 0.098088 0.521309 8.784991
2009-07-27 07:38:19 51°18.783 2°54.919 21.2112 0.087076 0.460707 8.784991
2009-07-27 07:38:25 51°18.794 2°54.944 21.2231 0.092428 0.490102 8.819815
2009-07-27 07:38:30 51°18.802 2°54.966 21.2112 0.095515 0.507123 8.784991
2009-07-27 07:38:35 51°18.811 2°54.987 21.2211 0.095515 0.507123 8.784991
2009-07-27 07:38:39 51°18.818 2°55.004 21.2125 0.104778 0.558353 8.784991
2009-07-27 07:38:45 51°18.829 2°55.03 21.2059 0.088208 0.46694 8.784991
2009-07-27 07:38:50 51°18.837 2°55.051 21.2209 0.098603 0.524204 8.819815
2009-07-27 07:38:55 51°18.846 2°55.073 21.2092 0.092634 0.49131 8.784991
2009-07-27 07:38:59 51°18.853 2°55.09 21.206 0.088723 0.46982 8.784991
2009-07-27 07:39:05 51°18.863 2°55.116 21.2133 0.088723 0.46982 8.784991
2009-07-27 07:39:10 51°18.872 2°55.137 21.2186 0.096339 0.511741 8.819815
2009-07-27 07:39:15 51°18.881 2°55.158 21.2284 0.096956 0.515174 8.784991
2009-07-27 07:39:19 51°18.888 2°55.175 21.2126 0.095927 0.509522 8.784991
2009-07-27 07:39:25 51°18.898 2°55.201 21.214 0.093354 0.495342 8.784991
2009-07-27 07:39:30 51°18.907 2°55.222 21.2247 0.091399 0.484556 8.784991
2009-07-27 07:39:35 51°18.916 2°55.244 21.2254 0.091399 0.484556 8.784991
2009-07-27 07:39:40 51°18.924 2°55.265 21.2296 0.093354 0.495309 8.784991
2009-07-27 07:39:45 51°18.933 2°55.286 21.2245 0.09922 0.527669 8.784991
2009-07-27 07:39:50 51°18.942 2°55.308 21.2179 0.088723 0.469836 8.819815
2009-07-27 07:39:54 51°18.949 2°55.325 21.2359 0.09037 0.478873 8.784991
2009-07-27 07:40:00 51°18.959 2°55.35 21.2346 0.105292 0.561311 8.784991
2009-07-27 07:40:05 51°18.968 2°55.372 21.219 0.105292 0.561311 8.784991
2009-07-27 07:40:10 51°18.977 2°55.393 21.2273 0.089855 0.476078 8.819815
2009-07-27 07:40:15 51°18.986 2°55.414 21.2304 0.091604 0.485696 8.784991
2009-07-27 07:40:20 51°18.994 2°55.436 21.2294 0.090164 0.477766 8.784991
2009-07-27 07:40:25 51°19.003 2°55.457 21.2375 0.097265 0.516896 8.819815
2009-07-27 07:40:30 51°19.012 2°55.478 21.2291 0.100146 0.532861 8.819815
2009-07-27 07:40:34 51°19.019 2°55.495 21.2289 0.100146 0.532861 8.819815
2009-07-27 07:40:39 51°19.028 2°55.517 21.2259 0.096339 0.511845 8.819815
2009-07-27 07:40:45 51°19.039 2°55.541 21.2237 0.092737 0.492009 8.784991
2009-07-27 07:40:50 51°19.048 2°55.562 21.2392 0.08862 0.46935 8.784991
2009-07-27 07:40:55 51°19.057 2°55.583 21.2396 0.095412 0.506736 8.784991
2009-07-27 07:40:59 51°19.064 2°55.6 21.2375 0.092016 0.488035 8.784991
2009-07-27 07:41:05 51°19.075 2°55.625 21.23 0.092016 0.488035 8.784991
2009-07-27 07:41:10 51°19.084 2°55.646 21.2421 0.097882 0.520402 8.784991
2009-07-27 07:41:15 51°19.092 2°55.667 21.2286 0.092737 0.492059 8.784991
2009-07-27 07:41:19 51°19.1 2°55.684 21.232 0.08687 0.459803 8.784991
2009-07-27 07:41:25 51°19.11 2°55.71 21.2373 0.102308 0.544921 8.819815
2009-07-27 07:41:30 51°19.119 2°55.731 21.2358 0.092016 0.488143 8.784991
2009-07-27 07:41:35 51°19.128 2°55.752 21.2362 0.092016 0.488143 8.784991
2009-07-27 07:41:39 51°19.136 2°55.768 21.2461 0.09603 0.510219 8.784991
2009-07-27 07:41:45 51°19.146 2°55.793 21.245 0.094177 0.499962 8.784991
2009-07-27 07:41:50 51°19.155 2°55.814 21.2294 0.095927 0.509608 8.784991
2009-07-27 07:41:55 51°19.164 2°55.835 21.2397 0.090781 0.481258 8.784991
2009-07-27 07:42:00 51°19.173 2°55.856 21.2227 0.089752 0.475601 8.819815
2009-07-27 07:42:05 51°19.183 2°55.876 21.2415 0.089752 0.475601 8.819815
2009-07-27 07:42:10 51°19.192 2°55.897 21.2462 0.093869 0.498286 8.784991
2009-07-27 07:42:14 51°19.199 2°55.914 21.2447 0.090678 0.480741 8.784991
2009-07-27 07:42:19 51°19.208 2°55.934 21.2565 0.087694 0.464336 8.784991
2009-07-27 07:42:25 51°19.218 2°55.96 21.2504 0.091502 0.485253 8.819815
2009-07-27 07:42:30 51°19.227 2°55.981 21.2515 0.08862 0.46939 8.784991
2009-07-27 07:42:35 51°19.236 2°56.002 21.2476 0.08862 0.46939 8.784991
2009-07-27 07:42:39 51°19.243 2°56.019 21.2552 0.085841 0.454122 8.784991
2009-07-27 07:42:45 51°19.253 2°56.045 21.2621 0.098088 0.521539 8.784991
2009-07-27 07:42:50 51°19.261 2°56.066 21.2531 0.089958 0.476756 8.784991
2009-07-27 07:42:54 51°19.269 2°56.083 21.2399 0.090781 0.481266 8.784991
2009-07-27 07:42:59 51°19.278 2°56.104 21.2569 0.095824 0.509092 8.784991
2009-07-27 07:43:05 51°19.288 2°56.129 21.2547 0.095824 0.509092 8.784991
2009-07-27 07:43:10 51°19.296 2°56.151 21.2538 0.087591 0.463803 8.784991
2009-07-27 07:43:14 51°19.304 2°56.168 21.2593 0.092016 0.488134 8.784991
2009-07-27 07:43:19 51°19.312 2°56.189 21.2593 0.087694 0.464384 8.784991
2009-07-27 07:43:25 51°19.323 2°56.214 21.263 0.089443 0.473992 8.784991
2009-07-27 07:43:30 51°19.332 2°56.235 21.2654 0.094589 0.502333 8.784991
2009-07-27 07:43:35 51°19.34 2°56.257 21.2533 0.094589 0.502333 8.784991
2009-07-27 07:43:39 51°19.347 2°56.274 21.2686 0.094898 0.504027 8.784991
2009-07-27 07:43:45 51°19.358 2°56.299 21.2544 0.090678 0.480782 8.784991
2009-07-27 07:43:50 51°19.367 2°56.32 21.2674 0.099426 0.528995 8.784991
2009-07-27 07:43:55 51°19.375 2°56.341 21.2585 0.095412 0.506822 8.784991
2009-07-27 07:43:59 51°19.383 2°56.358 21.2459 0.08687 0.459819 8.819815
2009-07-27 07:44:05 51°19.394 2°56.383 21.2754 0.08687 0.459819 8.819815
2009-07-27 07:44:10 51°19.402 2°56.404 21.2763 0.097162 0.516468 8.784991
2009-07-27 07:44:15 51°19.411 2°56.424 21.2625 0.092839 0.492659 8.784991
2009-07-27 07:44:19 51°19.418 2°56.441 21.2651 0.090575 0.480216 8.784991
2009-07-27 07:44:25 51°19.429 2°56.466 21.2606 0.099014 0.526764 8.784991
2009-07-27 07:44:30 51°19.438 2°56.488 21.2696 0.092531 0.491 8.784991
2009-07-27 07:44:35 51°19.446 2°56.509 21.2655 0.092531 0.491 8.784991
2009-07-27 07:44:39 51°19.453 2°56.526 21.2841 0.094486 0.501774 8.784991
2009-07-27 07:44:45 51°19.464 2°56.551 21.2716 0.092119 0.488767 8.819815
2009-07-27 07:44:50 51°19.473 2°56.573 21.28 0.090987 0.482512 8.784991
2009-07-27 07:44:54 51°19.479 2°56.59 21.2912 0.094383 0.501232 8.784991
2009-07-27 07:45:00 51°19.49 2°56.615 21.2861 0.096544 0.513207 8.784991
2009-07-27 07:45:05 51°19.498 2°56.636 21.2715 0.096544 0.513207 8.784991
2009-07-27 07:45:10 51°19.507 2°56.657 21.2651 0.092119 0.4888 8.819815
2009-07-27 07:45:15 51°19.516 2°56.678 21.2614 0.09181 0.487067 8.784991
2009-07-27 07:45:19 51°19.523 2°56.695 21.2857 0.102616 0.546733 8.819815
2009-07-27 07:45:25 51°19.533 2°56.721 21.2877 0.095721 0.508628 8.784991
2009-07-27 07:45:30 51°19.542 2°56.742 21.2621 0.089032 0.47177 8.819815
2009-07-27 07:45:35 51°19.551 2°56.763 21.2749 0.089032 0.47177 8.819815
2009-07-27 07:45:39 51°19.558 2°56.78 21.2933 0.094074 0.499522 8.784991
2009-07-27 07:45:45 51°19.568 2°56.805 21.2935 0.100352 0.534226 8.784991
2009-07-27 07:45:50 51°19.577 2°56.826 21.2865 0.093045 0.493926 8.819815
2009-07-27 07:45:55 51°19.586 2°56.847 21.2703 0.090678 0.480879 8.784991
2009-07-27 07:45:59 51°19.593 2°56.864 21.2986 0.096956 0.515497 8.784991
2009-07-27 07:46:05 51°19.603 2°56.89 21.2836 0.096956 0.515497 8.784991
2009-07-27 07:46:10 51°19.612 2°56.911 21.2898 0.091193 0.483718 8.784991
2009-07-27 07:46:15 51°19.62 2°56.932 21.2817 0.104469 0.557105 8.784991
2009-07-27 07:46:20 51°19.629 2°56.953 21.2963 0.104057 0.55485 8.819815
2009-07-27 07:46:25 51°19.638 2°56.974 21.2827 0.09675 0.514395 8.784991
2009-07-27 07:46:30 51°19.647 2°56.995 21.2879 0.091913 0.487683 8.784991
2009-07-27 07:46:35 51°19.656 2°57.016 21.2931 0.091913 0.487683 8.784991
2009-07-27 07:46:40 51°19.664 2°57.038 21.2943 0.095206 0.505832 8.784991
2009-07-27 07:46:45 51°19.673 2°57.059 21.2797 0.086459 0.457692 8.784991
2009-07-27 07:46:50 51°19.682 2°57.08 21.3021 0.095927 0.50979 8.784991
2009-07-27 07:46:55 51°19.69 2°57.101 21.2972 0.091913 0.487692 8.819815
2009-07-27 07:47:00 51°19.699 2°57.122 21.2907 0.094177 0.500157 8.784991
2009-07-27 07:47:05 51°19.708 2°57.143 21.2984 0.094177 0.500157 8.784991
2009-07-27 07:47:10 51°19.716 2°57.165 21.2925 0.089443 0.474105 8.784991
2009-07-27 07:47:14 51°19.724 2°57.181 21.3053 0.094486 0.501893 8.784991
2009-07-27 07:47:20 51°19.734 2°57.206 21.3088 0.095104 0.505341 8.784991
2009-07-27 07:47:25 51°19.743 2°57.227 21.3027 0.091913 0.487758 8.784991
2009-07-27 07:47:30 51°19.752 2°57.248 21.2774 0.084401 0.446477 8.784991
2009-07-27 07:47:35 51°19.761 2°57.269 21.2824 0.084401 0.446477 8.784991
2009-07-27 07:47:39 51°19.768 2°57.286 21.3017 0.093663 0.497371 8.784991
2009-07-27 07:47:45 51°19.777 2°57.312 21.3031 0.082548 0.436319 8.784991
2009-07-27 07:47:50 51°19.785 2°57.334 21.2887 0.095824 0.509282 8.784991
2009-07-27 07:47:55 51°19.793 2°57.356 21.3013 0.08687 0.45999 8.784991
2009-07-27 07:47:59 51°19.799 2°57.374 21.2914 0.109512 0.585136 8.784991
2009-07-27 07:48:05 51°19.808 2°57.4 21.3235 0.109512 0.585136 8.784991
2009-07-27 07:48:10 51°19.815 2°57.422 21.3013 0.094486 0.501901 8.784991
2009-07-27 07:48:15 51°19.822 2°57.444 21.321 0.09428 0.500792 8.784991
2009-07-27 07:48:19 51°19.828 2°57.462 21.3124 0.092325 0.490025 8.784991
2009-07-27 07:48:25 51°19.836 2°57.489 21.3291 0.097162 0.516765 8.784991
2009-07-27 07:48:30 51°19.843 2°57.512 21.3258 0.103543 0.552109 8.819815
2009-07-27 07:48:35 51°19.85 2°57.534 21.3219 0.103543 0.552109 8.819815
2009-07-27 07:48:40 51°19.857 2°57.557 21.3162 0.095618 0.508275 8.784991
2009-07-27 07:48:45 51°19.864 2°57.579 21.3275 0.085635 0.453315 8.784991
2009-07-27 07:48:50 51°19.871 2°57.602 21.3236 0.095927 0.509936 8.784991
2009-07-27 07:48:54 51°19.877 2°57.62 21.3274 0.098088 0.52191 8.784991
2009-07-27 07:48:59 51°19.884 2°57.643 21.3081 0.098911 0.526453 8.784991
2009-07-27 07:49:05 51°19.892 2°57.67 21.3261 0.098911 0.526453 8.784991
2009-07-27 07:49:10 51°19.899 2°57.693 21.2998 0.088723 0.470273 8.784991
2009-07-27 07:49:15 51°19.906 2°57.715 21.332 0.089443 0.474209 8.784991
2009-07-27 07:49:19 51°19.911 2°57.733 21.3177 0.099323 0.528721 8.819815
2009-07-27 07:49:25 51°19.92 2°57.76 21.3125 0.094795 0.503749 8.784991
2009-07-27 07:49:30 51°19.926 2°57.783 21.3278 0.094795 0.503766 8.784991
2009-07-27 07:49:35 51°19.934 2°57.805 21.3315 0.094795 0.503766 8.784991
2009-07-27 07:49:40 51°19.94 2°57.828 21.3081 0.098603 0.524853 8.819815
2009-07-27 07:49:45 51°19.947 2°57.85 21.3155 0.092737 0.492459 8.819815
2009-07-27 07:49:50 51°19.954 2°57.873 21.3289 0.095927 0.510101 8.819815
2009-07-27 07:49:55 51°19.961 2°57.895 21.3179 0.104881 0.559683 8.784991
2009-07-27 07:49:59 51°19.966 2°57.914 21.3374 0.097574 0.519207 8.784991
2009-07-27 07:50:05 51°19.975 2°57.941 21.3407 0.097574 0.519207 8.784991
2009-07-27 07:50:10 51°19.982 2°57.963 21.3482 0.102411 0.545936 8.819815
2009-07-27 07:50:15 51°19.989 2°57.986 21.336 0.10344 0.551623 8.784991
2009-07-27 07:50:19 51°19.994 2°58.004 21.3268 0.092531 0.491266 8.784991
2009-07-27 07:50:25 51°20.003 2°58.031 21.3214 0.092222 0.489549 8.784991
2009-07-27 07:50:30 51°20.01 2°58.053 21.3365 0.09675 0.514526 8.784991
2009-07-27 07:50:35 51°20.017 2°58.075 21.3272 0.09675 0.514526 8.784991
2009-07-27 07:50:40 51°20.024 2°58.098 21.323 0.088826 0.470846 8.819815
2009-07-27 07:50:45 51°20.031 2°58.12 21.3426 0.090164 0.478203 8.819815
2009-07-27 07:50:50 51°20.038 2°58.143 21.3474 0.08687 0.460114 8.784991
2009-07-27 07:50:55 51°20.045 2°58.165 21.351 0.10663 0.569303 8.784991
2009-07-27 07:50:59 51°20.05 2°58.183 21.3376 0.091193 0.483964 8.819815
2009-07-27 07:51:05 51°20.058 2°58.211 21.3333 0.091193 0.483964 8.819815
2009-07-27 07:51:10 51°20.065 2°58.233 21.3556 0.100867 0.53741 8.819815
2009-07-27 07:51:15 51°20.072 2°58.256 21.3368 0.094589 0.502724 8.784991
2009-07-27 07:51:20 51°20.079 2°58.278 21.3472 0.089855 0.476617 8.784991
2009-07-27 07:51:25 51°20.086 2°58.301 21.3491 0.09109 0.483438 8.784991
2009-07-27 07:51:30 51°20.093 2°58.323 21.3466 0.094795 0.503911 8.784991
2009-07-27 07:51:35 51°20.1 2°58.345 21.3476 0.094795 0.503911 8.784991
2009-07-27 07:51:39 51°20.105 2°58.363 21.3487 0.095001 0.505064 8.784991
2009-07-27 07:51:45 51°20.113 2°58.391 21.3535 0.096339 0.512444 8.784991
2009-07-27 07:51:50 51°20.12 2°58.413 21.3405 0.097059 0.516433 8.784991
2009-07-27 07:51:55 51°20.127 2°58.436 21.3463 0.098603 0.52496 8.819815
2009-07-27 07:51:59 51°20.132 2°58.454 21.3462 0.097059 0.516407 8.784991
2009-07-27 07:52:05 51°20.14 2°58.481 21.347 0.097059 0.516407 8.784991
2009-07-27 07:52:10 51°20.147 2°58.503 21.3632 0.093045 0.494219 8.819815
2009-07-27 07:52:15 51°20.154 2°58.526 21.3495 0.096133 0.511263 8.819815
2009-07-27 07:52:19 51°20.159 2°58.544 21.3512 0.095309 0.506709 8.784991
2009-07-27 07:52:25 51°20.168 2°58.571 21.3553 0.106116 0.56658 8.819815
2009-07-27 07:52:30 51°20.174 2°58.594 21.3475 0.09356 0.497056 8.784991
2009-07-27 07:52:35 51°20.181 2°58.616 21.3708 0.09356 0.497056 8.784991
2009-07-27 07:52:39 51°20.187 2°58.634 21.369 0.095927 0.510127 8.819815
2009-07-27 07:52:45 51°20.195 2°58.661 21.3671 0.097779 0.520371 8.819815
2009-07-27 07:52:50 51°20.202 2°58.684 21.3411 0.087591 0.464211 8.784991
2009-07-27 07:52:55 51°20.209 2°58.706 21.3417 0.095515 0.507836 8.819815
2009-07-27 07:52:59 51°20.215 2°58.724 21.3621 0.084503 0.447252 8.784991
2009-07-27 07:53:05 51°20.221 2°58.752 21.3435 0.084503 0.447252 8.784991
2009-07-27 07:53:10 51°20.228 2°58.775 21.3719 0.092016 0.488564 8.819815
2009-07-27 07:53:15 51°20.233 2°58.798 21.3696 0.088105 0.467046 8.784991
2009-07-27 07:53:19 51°20.238 2°58.816 21.3723 0.092016 0.488614 8.819815
2009-07-27 07:53:25 51°20.245 2°58.845 21.3632 0.095001 0.505082 8.819815
2009-07-27 07:53:30 51°20.251 2°58.868 21.3604 0.092222 0.489764 8.784991
2009-07-27 07:53:34 51°20.255 2°58.886 21.3587 0.092222 0.489764 8.784991
2009-07-27 07:53:40 51°20.261 2°58.914 21.3632 0.095104 0.505675 8.784991
2009-07-27 07:53:45 51°20.266 2°58.938 21.3776 0.09037 0.479603 8.784991
2009-07-27 07:53:50 51°20.271 2°58.962 21.3736 0.089443 0.47449 8.784991
2009-07-27 07:53:54 51°20.274 2°58.98 21.3719 0.093251 0.49548 8.784991
2009-07-27 07:54:00 51°20.28 2°59.009 21.3656 0.094486 0.50231 8.784991
2009-07-27 07:54:05 51°20.285 2°59.033 21.3707 0.094486 0.50231 8.784991
2009-07-27 07:54:10 51°20.289 2°59.057 21.3739 0.091604 0.486395 8.819815
2009-07-27 07:54:15 51°20.294 2°59.08 21.3752 0.094486 0.502284 8.784991
2009-07-27 07:54:19 51°20.297 2°59.099 21.384 0.101073 0.538715 8.784991
2009-07-27 07:54:25 51°20.302 2°59.128 21.3665 0.089752 0.476204 8.784991
2009-07-27 07:54:30 51°20.307 2°59.152 21.3704 0.093869 0.498885 8.784991
2009-07-27 07:54:35 51°20.311 2°59.175 21.3642 0.093869 0.498885 8.784991
2009-07-27 07:54:39 51°20.315 2°59.195 21.3582 0.093045 0.49437 8.819815
2009-07-27 07:54:45 51°20.32 2°59.223 21.3865 0.089958 0.477329 8.784991
2009-07-27 07:54:50 51°20.325 2°59.247 21.3854 0.105189 0.561588 8.819815
2009-07-27 07:54:55 51°20.329 2°59.271 21.3631 0.093148 0.494954 8.819815
2009-07-27 07:55:00 51°20.334 2°59.294 21.3845 0.104675 0.558702 8.819815
2009-07-27 07:55:05 51°20.338 2°59.318 21.3875 0.104675 0.558702 8.819815
2009-07-27 07:55:10 51°20.342 2°59.342 21.3934 0.094074 0.500021 8.784991
2009-07-27 07:55:15 51°20.346 2°59.366 21.3838 0.088311 0.46828 8.784991
2009-07-27 07:55:20 51°20.35 2°59.39 21.3896 0.098397 0.523892 8.784991
2009-07-27 07:55:25 51°20.354 2°59.414 21.395 0.09675 0.514814 8.784991
2009-07-27 07:55:30 51°20.358 2°59.438 21.3739 0.096133 0.511411 8.819815
2009-07-27 07:55:35 51°20.362 2°59.461 21.4006 0.096133 0.511411 8.819815
2009-07-27 07:55:40 51°20.367 2°59.485 21.3909 0.094692 0.50348 8.819815
2009-07-27 07:55:45 51°20.371 2°59.509 21.3876 0.096339 0.512565 8.784991
2009-07-27 07:55:50 51°20.375 2°59.533 21.3909 0.096339 0.512583 8.819815
2009-07-27 07:55:55 51°20.379 2°59.557 21.3985 0.101793 0.542818 8.784991
2009-07-27 07:55:59 51°20.382 2°59.576 21.3972 0.09922 0.528573 8.819815
2009-07-27 07:56:05 51°20.387 2°59.605 21.3951 0.09922 0.528573 8.819815
2009-07-27 07:56:10 51°20.391 2°59.629 21.3908 0.089855 0.476876 8.784991
2009-07-27 07:56:15 51°20.395 2°59.652 21.3736 0.098706 0.525725 8.819815
2009-07-27 07:56:19 51°20.398 2°59.672 21.3954 0.111056 0.594312 8.784991
2009-07-27 07:56:25 51°20.403 2°59.7 21.3897 0.0985 0.524586 8.784991
2009-07-27 07:56:30 51°20.408 2°59.724 21.3947 0.092839 0.493268 8.784991
2009-07-27 07:56:35 51°20.411 2°59.748 21.3995 0.092839 0.493268 8.784991
2009-07-27 07:56:39 51°20.415 2°59.767 21.3972 0.097265 0.517702 8.819815
2009-07-27 07:56:45 51°20.42 2°59.796 21.3917 0.092839 0.493251 8.784991
2009-07-27 07:56:50 51°20.424 2°59.82 21.41 0.100455 0.535376 8.819815
2009-07-27 07:56:55 51°20.428 2°59.843 21.4055 0.094383 0.501818 8.819815
2009-07-27 07:56:59 51°20.432 2°59.862 21.4125 0.09109 0.483667 8.819815
2009-07-27 07:57:05 51°20.437 2°59.891 21.4066 0.09109 0.483667 8.819815
2009-07-27 07:57:10 51°20.442 2°59.914 21.4204 0.092737 0.492742 8.819815
2009-07-27 07:57:15 51°20.446 2°59.938 21.388 0.100146 0.53372 8.819815
2009-07-27 07:57:19 51°20.45 2°59.957 21.4225 0.107145 0.572561 8.784991
2009-07-27 07:57:25 51°20.455 2°59.985 21.4035 0.098294 0.523501 8.819815
2009-07-27 07:57:30 51°20.46 3°0.009 21.4077 0.090987 0.483133 8.819815
2009-07-27 07:57:35 51°20.464 3°0.033 21.4085 0.090987 0.483133 8.819815
2009-07-27 07:57:39 51°20.468 3°0.051 21.4163 0.095207 0.506381 8.819815
2009-07-27 07:57:45 51°20.474 3°0.08 21.4104 0.098397 0.524017 8.784991
2009-07-27 07:57:50 51°20.478 3°0.103 21.4204 0.099941 0.532562 8.784991
2009-07-27 07:57:55 51°20.483 3°0.127 21.4088 0.093354 0.496173 8.784991
2009-07-27 07:58:00 51°20.487 3°0.15 21.4013 0.0985 0.524595 8.784991
2009-07-27 07:58:05 51°20.492 3°0.174 21.4365 0.0985 0.524595 8.784991
2009-07-27 07:58:10 51°20.496 3°0.197 21.4143 0.100455 0.535431 8.819815
2009-07-27 07:58:14 51°20.5 3°0.216 21.4191 0.089649 0.475759 8.819815
2009-07-27 07:58:20 51°20.505 3°0.244 21.4097 0.093148 0.495038 8.819815
2009-07-27 07:58:25 51°20.51 3°0.268 21.4298 0.108586 0.580676 8.819815
2009-07-27 07:58:30 51°20.514 3°0.291 21.4317 0.095412 0.507638 8.819815
2009-07-27 07:58:35 51°20.518 3°0.315 21.419 0.095412 0.507638 8.819815
2009-07-27 07:58:40 51°20.523 3°0.339 21.4332 0.092634 0.4923 8.784991
2009-07-27 07:58:45 51°20.527 3°0.362 21.4378 0.095001 0.505381 8.819815
2009-07-27 07:58:50 51°20.531 3°0.386 21.4285 0.093869 0.499139 8.819815
2009-07-27 07:58:55 51°20.536 3°0.41 21.4218 0.098294 0.523563 8.819815
2009-07-27 07:58:59 51°20.539 3°0.429 21.4451 0.107453 0.574405 8.784991
2009-07-27 07:59:05 51°20.544 3°0.457 21.4261 0.107453 0.574405 8.784991
2009-07-27 07:59:10 51°20.548 3°0.481 21.4282 0.092325 0.490589 8.784991
2009-07-27 07:59:15 51°20.552 3°0.505 21.4402 0.105395 0.562952 8.819815
2009-07-27 07:59:19 51°20.555 3°0.524 21.43 0.0985 0.52472 8.819815
2009-07-27 07:59:25 51°20.56 3°0.553 21.4229 0.095309 0.507087 8.819815
2009-07-27 07:59:30 51°20.564 3°0.577 21.4378 0.096544 0.513912 8.819815
2009-07-27 07:59:35 51°20.568 3°0.601 21.4389 0.096544 0.513912 8.819815
2009-07-27 07:59:39 51°20.571 3°0.62 21.4441 0.095001 0.505364 8.784991
2009-07-27 07:59:45 51°20.576 3°0.649 21.4404 0.089443 0.47469 8.819815
2009-07-27 07:59:50 51°20.58 3°0.672 21.444 0.097471 0.518981 8.819815
2009-07-27 07:59:55 51°20.583 3°0.696 21.4398 0.101587 0.541787 8.819815
2009-07-27 07:59:59 51°20.587 3°0.715 21.4429 0.0985 0.524702 8.784991
2009-07-27 08:00:05 51°20.591 3°0.744 21.4398 0.0985 0.524702 8.784991
2009-07-27 08:00:10 51°20.595 3°0.768 21.4293 0.091193 0.484341 8.784991
2009-07-27 08:00:15 51°20.599 3°0.792 21.4444 0.093869 0.499088 8.819815
2009-07-27 08:00:20 51°20.603 3°0.816 21.442 0.090884 0.48264 8.784991
2009-07-27 08:00:25 51°20.607 3°0.839 21.445 0.092737 0.492859 8.819815
2009-07-27 08:00:30 51°20.612 3°0.863 21.4363 0.099529 0.530445 8.819815
2009-07-27 08:00:35 51°20.616 3°0.887 21.4301 0.099529 0.530445 8.819815
2009-07-27 08:00:40 51°20.62 3°0.91 21.4296 0.097779 0.520777 8.784991
2009-07-27 08:00:45 51°20.624 3°0.934 21.4576 0.101381 0.540719 8.784991
2009-07-27 08:00:50 51°20.628 3°0.958 21.454 0.096956 0.516206 8.819815
2009-07-27 08:00:55 51°20.632 3°0.981 21.456 0.102925 0.549255 8.784991
2009-07-27 08:01:00 51°20.636 3°1.005 21.4581 0.103234 0.550996 8.819815
2009-07-27 08:01:05 51°20.64 3°1.029 21.4458 0.103234 0.550996 8.819815
2009-07-27 08:01:10 51°20.644 3°1.053 21.4485 0.09037 0.479871 8.819815
2009-07-27 08:01:15 51°20.649 3°1.076 21.462 0.097676 0.520217 8.819815
2009-07-27 08:01:19 51°20.652 3°1.095 21.4703 0.092119 0.489521 8.819815
2009-07-27 08:01:25 51°20.657 3°1.123 21.4451 0.091913 0.488386 8.819815
2009-07-27 08:01:30 51°20.661 3°1.147 21.4538 0.092325 0.490672 8.819815
2009-07-27 08:01:35 51°20.666 3°1.171 21.4537 0.092325 0.490672 8.819815
2009-07-27 08:01:40 51°20.67 3°1.194 21.4462 0.095515 0.508293 8.819815
2009-07-27 08:01:45 51°20.674 3°1.218 21.4579 0.096956 0.516284 8.784991
2009-07-27 08:01:50 51°20.678 3°1.242 21.4766 0.097471 0.519166 8.819815
2009-07-27 08:01:55 51°20.682 3°1.265 21.4717 0.095618 0.508922 8.819815
2009-07-27 08:01:59 51°20.686 3°1.284 21.4763 0.095824 0.510042 8.819815
2009-07-27 08:02:05 51°20.691 3°1.313 21.4732 0.095824 0.510042 8.819815
2009-07-27 08:02:10 51°20.695 3°1.336 21.469 0.098603 0.525423 8.819815
2009-07-27 08:02:15 51°20.7 3°1.36 21.4753 0.099117 0.528282 8.819815
2009-07-27 08:02:19 51°20.703 3°1.378 21.4743 0.097779 0.520919 8.819815
2009-07-27 08:02:25 51°20.708 3°1.407 21.4657 0.09109 0.483963 8.819815
2009-07-27 08:02:30 51°20.712 3°1.43 21.4702 0.095104 0.506113 8.819815
2009-07-27 08:02:35 51°20.717 3°1.454 21.4814 0.095104 0.506113 8.819815
2009-07-27 08:02:40 51°20.721 3°1.477 21.4633 0.092428 0.491323 8.819815
2009-07-27 08:02:45 51°20.726 3°1.5 21.4758 0.102308 0.54594 8.819815
2009-07-27 08:02:50 51°20.73 3°1.524 21.4579 0.097162 0.517414 8.784991
2009-07-27 08:02:55 51°20.735 3°1.547 21.4754 0.102411 0.546474 8.819815
2009-07-27 08:03:00 51°20.739 3°1.57 21.4764 0.095721 0.509448 8.819815
2009-07-27 08:03:05 51°20.744 3°1.593 21.4795 0.095721 0.509448 8.819815
2009-07-27 08:03:10 51°20.748 3°1.616 21.4886 0.09922 0.528825 8.819815
2009-07-27 08:03:15 51°20.753 3°1.639 21.4832 0.10344 0.552289 8.819815
2009-07-27 08:03:20 51°20.758 3°1.662 21.4809 0.097059 0.516959 8.819815
2009-07-27 08:03:25 51°20.762 3°1.686 21.4812 0.09037 0.480017 8.819815
2009-07-27 08:03:30 51°20.768 3°1.708 21.4835 0.100764 0.537479 8.819815
2009-07-27 08:03:35 51°20.772 3°1.731 21.5001 0.100764 0.537479 8.819815
2009-07-27 08:03:39 51°20.776 3°1.75 21.4832 0.114966 0.61658 8.819815
2009-07-27 08:03:45 51°20.782 3°1.777 21.4843 0.090164 0.478899 8.819815
2009-07-27 08:03:50 51°20.787 3°1.8 21.4818 0.100558 0.536329 8.819815
2009-07-27 08:03:55 51°20.792 3°1.822 21.4867 0.095927 0.510646 8.784991
2009-07-27 08:04:00 51°20.797 3°1.845 21.4943 0.102822 0.548823 8.819815
2009-07-27 08:04:05 51°20.802 3°1.867 21.495 0.102822 0.548823 8.819815
2009-07-27 08:04:10 51°20.808 3°1.889 21.498 0.099426 0.530001 8.819815
2009-07-27 08:04:15 51°20.813 3°1.912 21.4976 0.096956 0.516346 8.819815
2009-07-27 08:04:20 51°20.818 3°1.934 21.489 0.097162 0.51752 8.819815
2009-07-27 08:04:25 51°20.824 3°1.956 21.4898 0.098603 0.525521 8.819815
2009-07-27 08:04:30 51°20.829 3°1.978 21.5004 0.092428 0.491398 8.819815
2009-07-27 08:04:35 51°20.834 3°2.001 21.4976 0.092428 0.491398 8.819815
2009-07-27 08:04:39 51°20.838 3°2.018 21.4998 0.098911 0.527267 8.819815
2009-07-27 08:04:45 51°20.844 3°2.045 21.4814 0.09181 0.487992 8.819815
2009-07-27 08:04:50 51°20.849 3°2.067 21.4981 0.0985 0.524925 8.819815
2009-07-27 08:04:55 51°20.854 3°2.09 21.5034 0.096236 0.512388 8.819815
2009-07-27 08:04:59 51°20.858 3°2.108 21.5024 0.091502 0.486257 8.819815
2009-07-27 08:05:05 51°20.864 3°2.134 21.4891 0.091502 0.486257 8.819815
2009-07-27 08:05:10 51°20.869 3°2.157 21.486 0.088723 0.470934 8.784991
2009-07-27 08:05:15 51°20.874 3°2.179 21.4959 0.094177 0.501013 8.819815
2009-07-27 08:05:20 51°20.879 3°2.201 21.4762 0.093251 0.495959 8.819815
2009-07-27 08:05:25 51°20.883 3°2.224 21.4636 0.107145 0.57298 8.819815
2009-07-27 08:05:30 51°20.888 3°2.246 21.5055 0.084503 0.447781 8.784991
2009-07-27 08:05:34 51°20.89 3°2.265 21.5053 0.084503 0.447781 8.784991
2009-07-27 08:05:39 51°20.894 3°2.287 21.5153 0.109821 0.587863 8.819815
2009-07-27 08:05:45 51°20.898 3°2.315 21.5006 0.100044 0.533504 8.819815
2009-07-27 08:05:50 51°20.901 3°2.338 21.4938 0.103337 0.55183 8.819815
2009-07-27 08:05:55 51°20.903 3°2.361 21.5033 0.099529 0.530715 8.819815
2009-07-27 08:05:59 51°20.905 3°2.379 21.5073 0.095618 0.509052 8.819815
2009-07-27 08:06:05 51°20.908 3°2.407 21.5235 0.095618 0.509052 8.819815
2009-07-27 08:06:10 51°20.91 3°2.43 21.4964 0.09675 0.515356 8.819815
2009-07-27 08:06:15 51°20.913 3°2.453 21.5106 0.099014 0.527873 8.819815
2009-07-27 08:06:19 51°20.914 3°2.471 21.5172 0.091193 0.484637 8.819815
2009-07-27 08:06:25 51°20.916 3°2.499 21.5353 0.097471 0.519351 8.819815
2009-07-27 08:06:30 51°20.918 3°2.522 21.5353 0.10838 0.579954 8.819815
2009-07-27 08:06:35 51°20.92 3°2.545 21.5327 0.10838 0.579954 8.819815
2009-07-27 08:06:40 51°20.922 3°2.568 21.5271 0.114143 0.612157 8.819815
2009-07-27 08:06:45 51°20.924 3°2.591 21.5066 0.105395 0.56344 8.819815
2009-07-27 08:06:50 51°20.928 3°2.614 21.5168 0.097368 0.51887 8.819815
2009-07-27 08:06:55 51°20.93 3°2.637 21.5169 0.107145 0.573097 8.819815
2009-07-27 08:07:00 51°20.932 3°2.66 21.5339 0.097574 0.51993 8.819815
2009-07-27 08:07:05 51°20.935 3°2.683 21.517 0.097574 0.51993 8.819815
2009-07-27 08:07:10 51°20.937 3°2.706 21.538 0.097676 0.520491 8.819815
2009-07-27 08:07:14 51°20.939 3°2.724 21.5371 0.103543 0.55303 8.819815
2009-07-27 08:07:20 51°20.942 3°2.752 21.5185 0.092531 0.492066 8.819815
2009-07-27 08:07:25 51°20.945 3°2.775 21.5164 0.100455 0.535904 8.819815
2009-07-27 08:07:30 51°20.947 3°2.798 21.5343 0.099014 0.527945 8.819815
2009-07-27 08:07:35 51°20.95 3°2.821 21.5317 0.099014 0.527945 8.819815
2009-07-27 08:07:40 51°20.952 3°2.844 21.5471 0.096544 0.51427 8.819815
2009-07-27 08:07:45 51°20.955 3°2.866 21.5407 0.105704 0.565138 8.819815
2009-07-27 08:07:50 51°20.958 3°2.889 21.5175 0.101896 0.543971 8.819815
2009-07-27 08:07:55 51°20.96 3°2.912 21.5414 0.091399 0.485854 8.819815
2009-07-27 08:07:59 51°20.962 3°2.931 21.5221 0.099117 0.528542 8.819815
2009-07-27 08:08:05 51°20.965 3°2.958 21.5422 0.099117 0.528542 8.819815
2009-07-27 08:08:10 51°20.968 3°2.981 21.5448 0.10416 0.556527 8.819815
2009-07-27 08:08:15 51°20.971 3°3.003 21.5406 0.101484 0.541668 8.819815
2009-07-27 08:08:19 51°20.974 3°3.021 21.533 0.099323 0.529701 8.819815
2009-07-27 08:08:25 51°20.977 3°3.048 21.5409 0.096236 0.512614 8.819815
2009-07-27 08:08:30 51°20.981 3°3.071 21.5431 0.097368 0.518861 8.819815